Time,TemperatureF,DewpointF,PressureIn,WindDirection,WindDirectionDegrees,WindSpeedMPH,WindSpeedGustMPH,Humidity,HourlyPrecipIn,Conditions,Clouds,dailyrainin,SoftwareType,DateUTC
2013-02-11 00:00:00,44.7,41.4,30.05,ENE,77,0.0,0.0,88,0.00,RA,,0.00,WeatherDisplay:10.37,2013-02-11 05:00:00,
2013-02-11 00:05:00,44.4,41.4,30.05,ENE,77,0.0,0.0,89,0.00,RA,,0.00,WeatherDisplay:10.37,2013-02-11 05:05:00,
2013-02-11 00:06:00,44.4,41.4,30.05,ENE,76,0.0,0.0,89,0.00,RA,,0.00,WeatherDisplay:10.37,2013-02-11 05:06:00,
2013-02-11 00:10:00,44.1,41.1,30.05,ENE,76,1.1,1.1,89,0.00,,,0.00,WeatherDisplay:10.37,2013-02-11 05:10:00,
2013-02-11 00:11:00,44.1,41.1,30.05,ENE,76,0.0,0.0,89,0.00,,,0.00,WeatherDisplay:10.37,2013-02-11 05:11:00,
2013-02-11 00:15:00,43.9,41.2,30.05,ENE,77,0.0,0.0,90,0.00,,,0.00,WeatherDisplay:10.37,2013-02-11 05:15:00,
2013-02-11 00:16:00,43.9,41.2,30.05,ENE,77,0.0,0.0,90,0.00,,,0.00,WeatherDisplay:10.37,2013-02-11 05:16:00,
2013-02-11 00:20:00,43.7,41.0,30.05,ENE,77,0.0,0.0,90,0.00,,,0.00,WeatherDisplay:10.37,2013-02-11 05:20:00,
2013-02-11 00:21:00,43.7,41.0,30.05,ENE,77,0.0,0.0,90,0.00,,,0.00,WeatherDisplay:10.37,2013-02-11 05:21:00,
2013-02-11 00:26:00,43.5,41.0,30.06,ENE,77,0.0,0.0,91,0.00,,,0.00,WeatherDisplay:10.37,2013-02-11 05:26:00,
2013-02-11 00:31:00,43.3,41.1,30.06,ENE,77,0.0,0.0,92,0.00,,,0.00,WeatherDisplay:10.37,2013-02-11 05:31:00,
2013-02-11 00:32:00,43.3,41.1,30.06,ENE,77,0.0,0.0,92,0.00,,,0.00,WeatherDisplay:10.37,2013-02-11 05:32:00,
2013-02-11 00:36:00,43.1,40.9,30.05,ENE,77,0.0,0.0,92,0.00,,,0.00,WeatherDisplay:10.37,2013-02-11 05:36:00,
2013-02-11 00:37:00,43.1,40.9,30.05,ENE,76,1.1,1.1,92,0.00,,,0.00,WeatherDisplay:10.37,2013-02-11 05:37:00,
2013-02-11 00:41:00,43.0,40.8,30.05,ENE,77,0.0,0.0,92,0.00,,,0.00,WeatherDisplay:10.37,2013-02-11 05:41:00,
2013-02-11 00:42:00,43.0,40.8,30.04,ENE,76,0.0,0.0,92,0.00,,,0.00,WeatherDisplay:10.37,2013-02-11 05:42:00,
2013-02-11 00:46:00,42.9,41.0,30.04,ENE,77,1.1,0.0,93,0.00,,,0.00,WeatherDisplay:10.37,2013-02-11 05:46:00,
2013-02-11 00:47:00,42.9,41.0,30.04,ENE,76,0.0,0.0,93,0.00,,,0.00,WeatherDisplay:10.37,2013-02-11 05:47:00,
2013-02-11 00:48:00,42.9,40.7,30.05,ENE,77,0.0,0.0,92,0.00,,,0.00,WeatherDisplay:10.37,2013-02-11 05:48:00,
2013-02-11 00:51:00,42.9,41.0,30.05,ENE,77,0.0,0.0,93,0.00,,,0.00,WeatherDisplay:10.37,2013-02-11 05:51:00,
2013-02-11 00:52:00,42.8,40.9,30.05,ENE,76,0.0,0.0,93,0.00,,,0.00,WeatherDisplay:10.37,2013-02-11 05:52:00,
2013-02-11 00:53:00,42.8,40.9,30.05,ENE,77,0.0,0.0,93,0.00,,,0.00,WeatherDisplay:10.37,2013-02-11 05:53:00,
2013-02-11 00:56:00,42.8,40.9,30.05,ENE,77,0.0,0.0,93,0.00,,,0.00,WeatherDisplay:10.37,2013-02-11 05:56:00,
2013-02-11 00:58:00,42.8,40.9,30.06,ENE,77,0.0,0.0,93,0.00,,,0.00,WeatherDisplay:10.37,2013-02-11 05:58:00,
2013-02-11 00:59:00,42.8,40.9,30.06,ENE,77,0.0,0.0,93,0.00,,,0.00,WeatherDisplay:10.37,2013-02-11 05:59:00,
2013-02-11 01:02:00,42.8,40.9,30.06,ENE,77,0.0,0.0,93,0.00,CLR,,0.00,WeatherDisplay:10.37,2013-02-11 06:02:00,
2013-02-11 01:03:00,42.8,40.9,30.06,ENE,77,0.0,0.0,93,0.00,CLR,,0.00,WeatherDisplay:10.37,2013-02-11 06:03:00,
2013-02-11 01:04:00,42.8,40.9,30.06,ENE,77,0.0,0.0,93,0.00,CLR,,0.00,WeatherDisplay:10.37,2013-02-11 06:04:00,
2013-02-11 01:08:00,42.8,40.9,30.05,ENE,77,0.0,0.0,93,0.00,CLR,,0.00,WeatherDisplay:10.37,2013-02-11 06:08:00,
2013-02-11 01:09:00,42.8,40.9,30.05,ENE,77,1.1,1.1,93,0.00,CLR,,0.00,WeatherDisplay:10.37,2013-02-11 06:09:00,
2013-02-11 01:13:00,42.9,41.3,30.05,ENE,77,1.1,1.1,94,0.00,CLR,,0.00,WeatherDisplay:10.37,2013-02-11 06:13:00,
2013-02-11 01:14:00,43.0,41.4,30.05,ENE,77,1.1,1.1,94,0.00,CLR,,0.00,WeatherDisplay:10.37,2013-02-11 06:14:00,
2013-02-11 01:18:00,43.1,41.5,30.05,ENE,77,0.0,0.0,94,0.00,CLR,,0.00,WeatherDisplay:10.37,2013-02-11 06:18:00,
2013-02-11 01:19:00,43.1,41.5,30.05,ENE,76,0.0,0.0,94,0.00,CLR,,0.00,WeatherDisplay:10.37,2013-02-11 06:19:00,
2013-02-11 01:20:00,43.2,41.6,30.05,ENE,77,0.0,0.0,94,0.00,CLR,,0.00,WeatherDisplay:10.37,2013-02-11 06:20:00,
2013-02-11 01:24:00,43.3,41.4,30.04,ENE,76,1.1,0.0,93,0.00,CLR,,0.00,WeatherDisplay:10.37,2013-02-11 06:24:00,
2013-02-11 01:25:00,43.3,41.4,30.04,ENE,77,0.0,0.0,93,0.00,CLR,,0.00,WeatherDisplay:10.37,2013-02-11 06:25:00,
2013-02-11 01:29:00,43.4,41.5,30.05,ENE,77,0.0,0.0,93,0.00,CLR,,0.00,WeatherDisplay:10.37,2013-02-11 06:29:00,
2013-02-11 01:30:00,43.5,41.6,30.05,ENE,77,0.0,0.0,93,0.00,CLR,,0.00,WeatherDisplay:10.37,2013-02-11 06:30:00,
2013-02-11 01:34:00,43.5,41.6,30.05,ENE,77,0.0,0.0,93,0.00,CLR,,0.00,WeatherDisplay:10.37,2013-02-11 06:34:00,
2013-02-11 01:35:00,43.5,41.6,30.05,ENE,77,0.0,0.0,93,0.00,CLR,,0.00,WeatherDisplay:10.37,2013-02-11 06:35:00,
2013-02-11 01:39:00,43.6,42.0,30.06,WNW,293,2.3,2.3,94,0.00,CLR,,0.00,WeatherDisplay:10.37,2013-02-11 06:39:00,
2013-02-11 01:40:00,43.6,41.7,30.06,WNW,292,1.1,1.1,93,0.00,CLR,,0.00,WeatherDisplay:10.37,2013-02-11 06:40:00,
2013-02-11 01:44:00,43.6,41.7,30.05,West,264,1.1,0.0,93,0.00,CLR,,0.00,WeatherDisplay:10.37,2013-02-11 06:44:00,
2013-02-11 01:45:00,43.6,41.7,30.05,West,262,1.1,1.1,93,0.00,CLR,,0.00,WeatherDisplay:10.37,2013-02-11 06:45:00,
2013-02-11 01:46:00,43.6,41.7,30.05,West,263,1.1,1.1,93,0.00,CLR,,0.00,WeatherDisplay:10.37,2013-02-11 06:46:00,
2013-02-11 01:49:00,43.6,41.7,30.05,West,262,0.0,0.0,93,0.00,CLR,,0.00,WeatherDisplay:10.37,2013-02-11 06:49:00,
2013-02-11 01:50:00,43.6,41.7,30.05,West,263,0.0,0.0,93,0.00,CLR,,0.00,WeatherDisplay:10.37,2013-02-11 06:50:00,
2013-02-11 01:51:00,43.6,41.7,30.05,West,262,0.0,0.0,93,0.00,CLR,,0.00,WeatherDisplay:10.37,2013-02-11 06:51:00,
2013-02-11 01:55:00,43.6,41.7,30.04,WNW,282,1.1,0.0,93,0.00,CLR,,0.00,WeatherDisplay:10.37,2013-02-11 06:55:00,
2013-02-11 01:56:00,43.6,41.7,30.04,WNW,290,1.0,1.0,93,0.00,CLR,,0.00,WeatherDisplay:10.37,2013-02-11 06:56:00,
2013-02-11 02:00:00,43.7,41.8,30.03,WNW,286,0.0,0.0,93,0.00,CLR,,0.00,WeatherDisplay:10.37,2013-02-11 07:00:00,
2013-02-11 02:01:00,43.7,42.1,30.03,WNW,286,0.0,0.1,94,0.00,CLR,,0.00,WeatherDisplay:10.37,2013-02-11 07:01:00,
2013-02-11 02:05:00,43.8,42.2,30.03,WNW,285,0.0,0.0,94,0.00,CLR,,0.00,WeatherDisplay:10.37,2013-02-11 07:05:00,
2013-02-11 02:07:00,43.9,42.3,30.03,WNW,287,1.1,1.1,94,0.00,CLR,,0.00,WeatherDisplay:10.37,2013-02-11 07:07:00,
2013-02-11 02:10:00,44.0,42.4,30.03,WNW,286,0.0,0.0,94,0.00,CLR,,0.00,WeatherDisplay:10.37,2013-02-11 07:10:00,
2013-02-11 02:11:00,44.0,42.4,30.03,WNW,286,0.0,0.0,94,0.00,CLR,,0.00,WeatherDisplay:10.37,2013-02-11 07:11:00,
2013-02-11 02:12:00,44.0,42.4,30.03,WNW,285,1.1,1.1,94,0.00,CLR,,0.00,WeatherDisplay:10.37,2013-02-11 07:12:00,
2013-02-11 02:16:00,44.1,42.2,30.02,WNW,285,0.0,0.0,93,0.00,CLR,,0.00,WeatherDisplay:10.37,2013-02-11 07:16:00,
2013-02-11 02:17:00,44.1,42.5,30.02,WNW,285,0.0,0.0,94,0.00,CLR,,0.00,WeatherDisplay:10.37,2013-02-11 07:17:00,
2013-02-11 02:21:00,44.2,42.6,30.03,WNW,285,0.0,0.0,94,0.00,CLR,,0.00,WeatherDisplay:10.37,2013-02-11 07:21:00,
2013-02-11 02:22:00,44.2,42.3,30.03,WNW,286,0.0,0.0,93,0.00,CLR,,0.00,WeatherDisplay:10.37,2013-02-11 07:22:00,
2013-02-11 02:26:00,44.3,42.4,30.02,WNW,285,0.0,0.0,93,0.00,CLR,,0.00,WeatherDisplay:10.37,2013-02-11 07:26:00,
2013-02-11 02:27:00,44.3,42.7,30.02,WNW,285,0.0,0.0,94,0.00,CLR,,0.00,WeatherDisplay:10.37,2013-02-11 07:27:00,
2013-02-11 02:31:00,44.4,42.5,30.02,WNW,285,0.0,0.0,93,0.00,CLR,,0.00,WeatherDisplay:10.37,2013-02-11 07:31:00,
2013-02-11 02:32:00,44.4,42.5,30.02,WNW,286,0.0,0.0,93,0.00,CLR,,0.00,WeatherDisplay:10.37,2013-02-11 07:32:00,
2013-02-11 02:33:00,44.4,42.5,30.02,WNW,285,0.0,0.0,93,0.00,CLR,,0.00,WeatherDisplay:10.37,2013-02-11 07:33:00,
2013-02-11 02:36:00,44.5,42.9,30.01,WNW,286,0.0,0.0,94,0.00,CLR,,0.00,WeatherDisplay:10.37,2013-02-11 07:36:00,
2013-02-11 02:37:00,44.5,42.9,30.01,WNW,285,0.0,0.0,94,0.00,CLR,,0.00,WeatherDisplay:10.37,2013-02-11 07:37:00,
2013-02-11 02:38:00,44.5,42.9,30.01,WNW,285,0.0,0.0,94,0.00,CLR,,0.00,WeatherDisplay:10.37,2013-02-11 07:38:00,
2013-02-11 02:42:00,44.6,43.0,30.02,WNW,286,0.0,0.0,94,0.00,CLR,,0.00,WeatherDisplay:10.37,2013-02-11 07:42:00,
2013-02-11 02:43:00,44.6,43.0,30.02,WNW,285,0.0,0.0,94,0.00,CLR,,0.00,WeatherDisplay:10.37,2013-02-11 07:43:00,
2013-02-11 02:47:00,44.7,43.1,30.02,WNW,286,0.0,0.0,94,0.00,CLR,,0.00,WeatherDisplay:10.37,2013-02-11 07:47:00,
2013-02-11 02:48:00,44.7,43.1,30.02,WNW,285,0.0,0.0,94,0.00,CLR,,0.00,WeatherDisplay:10.37,2013-02-11 07:48:00,
2013-02-11 02:52:00,44.8,43.2,30.02,WNW,285,0.0,0.0,94,0.00,CLR,,0.00,WeatherDisplay:10.37,2013-02-11 07:52:00,
2013-02-11 02:53:00,44.7,43.1,30.02,WNW,286,0.0,0.0,94,0.00,CLR,,0.00,WeatherDisplay:10.37,2013-02-11 07:53:00,
2013-02-11 02:57:00,44.8,43.2,30.02,WNW,285,0.0,0.0,94,0.00,CLR,,0.00,WeatherDisplay:10.37,2013-02-11 07:57:00,
2013-02-11 02:58:00,44.8,43.2,30.02,WNW,286,0.0,0.0,94,0.00,CLR,,0.00,WeatherDisplay:10.37,2013-02-11 07:58:00,
2013-02-11 03:03:00,44.9,43.3,30.02,WNW,285,0.0,0.0,94,0.00,CLR,,0.00,WeatherDisplay:10.37,2013-02-11 08:03:00,
2013-02-11 03:08:00,44.9,43.0,30.02,WNW,285,0.0,0.0,93,0.00,CLR,,0.00,WeatherDisplay:10.37,2013-02-11 08:08:00,
2013-02-11 03:10:00,44.9,43.0,30.02,WNW,285,0.0,0.0,93,0.00,CLR,,0.00,WeatherDisplay:10.37,2013-02-11 08:10:00,
2013-02-11 03:13:00,44.8,42.9,30.02,WNW,286,0.0,0.0,93,0.00,CLR,,0.00,WeatherDisplay:10.37,2013-02-11 08:13:00,
2013-02-11 03:14:00,44.8,42.9,30.02,WNW,286,0.0,0.0,93,0.00,CLR,,0.00,WeatherDisplay:10.37,2013-02-11 08:14:00,
2013-02-11 03:15:00,44.8,42.9,30.02,WNW,286,1.1,0.0,93,0.00,CLR,,0.00,WeatherDisplay:10.37,2013-02-11 08:15:00,
2013-02-11 03:18:00,44.8,42.9,30.02,WNW,286,0.0,0.0,93,0.00,CLR,,0.00,WeatherDisplay:10.37,2013-02-11 08:18:00,
2013-02-11 03:19:00,44.8,42.9,30.02,WNW,285,0.0,0.0,93,0.00,CLR,,0.00,WeatherDisplay:10.37,2013-02-11 08:19:00,
2013-02-11 03:20:00,44.8,42.9,30.02,WNW,286,0.0,0.0,93,0.00,CLR,,0.00,WeatherDisplay:10.37,2013-02-11 08:20:00,
2013-02-11 03:24:00,44.8,42.9,30.01,WNW,285,0.0,0.0,93,0.00,CLR,,0.00,WeatherDisplay:10.37,2013-02-11 08:24:00,
2013-02-11 03:25:00,44.8,42.9,30.01,WNW,285,0.0,0.0,93,0.00,CLR,,0.00,WeatherDisplay:10.37,2013-02-11 08:25:00,
2013-02-11 03:29:00,44.8,42.9,30.01,WNW,285,0.0,0.0,93,0.00,CLR,,0.00,WeatherDisplay:10.37,2013-02-11 08:29:00,
2013-02-11 03:30:00,44.8,42.9,30.00,WNW,286,0.0,0.0,93,0.00,CLR,,0.00,WeatherDisplay:10.37,2013-02-11 08:30:00,
2013-02-11 03:31:00,44.8,42.9,30.00,WNW,286,0.0,0.0,93,0.00,CLR,,0.00,WeatherDisplay:10.37,2013-02-11 08:31:00,
2013-02-11 03:34:00,44.8,42.9,30.00,WNW,285,0.0,0.0,93,0.00,CLR,,0.00,WeatherDisplay:10.37,2013-02-11 08:34:00,
2013-02-11 03:35:00,44.8,42.9,30.00,WNW,286,0.0,0.0,93,0.00,CLR,,0.00,WeatherDisplay:10.37,2013-02-11 08:35:00,
2013-02-11 03:36:00,44.8,42.9,30.00,WNW,286,0.0,0.0,93,0.00,CLR,,0.00,WeatherDisplay:10.37,2013-02-11 08:36:00,
2013-02-11 03:39:00,44.8,42.9,30.00,WNW,285,0.0,0.0,93,0.00,CLR,,0.00,WeatherDisplay:10.37,2013-02-11 08:39:00,
2013-02-11 03:40:00,44.8,42.9,30.00,WNW,286,0.0,0.0,93,0.00,CLR,,0.00,WeatherDisplay:10.37,2013-02-11 08:40:00,
2013-02-11 03:41:00,44.8,42.9,30.00,WNW,286,0.0,0.0,93,0.00,CLR,,0.00,WeatherDisplay:10.37,2013-02-11 08:41:00,
2013-02-11 03:44:00,44.8,42.9,30.00,WNW,285,0.0,0.0,93,0.00,CLR,,0.00,WeatherDisplay:10.37,2013-02-11 08:44:00,
2013-02-11 03:45:00,44.8,42.9,30.00,WNW,286,0.0,0.0,93,0.00,CLR,,0.00,WeatherDisplay:10.37,2013-02-11 08:45:00,
2013-02-11 03:46:00,44.8,42.9,30.00,WNW,285,0.0,0.0,93,0.00,CLR,,0.00,WeatherDisplay:10.37,2013-02-11 08:46:00,
2013-02-11 03:50:00,44.8,43.2,30.00,WNW,285,0.0,0.0,94,0.00,CLR,,0.00,WeatherDisplay:10.37,2013-02-11 08:50:00,
2013-02-11 03:51:00,44.8,43.2,30.00,WNW,285,0.0,0.0,94,0.00,CLR,,0.00,WeatherDisplay:10.37,2013-02-11 08:51:00,
2013-02-11 03:52:00,44.8,43.2,30.00,WNW,285,0.0,0.0,94,0.00,CLR,,0.00,WeatherDisplay:10.37,2013-02-11 08:52:00,
2013-02-11 03:55:00,44.8,43.2,30.00,WNW,285,0.0,0.0,94,0.00,CLR,,0.00,WeatherDisplay:10.37,2013-02-11 08:55:00,
2013-02-11 03:56:00,44.7,43.1,30.00,WNW,286,0.0,0.0,94,0.00,CLR,,0.00,WeatherDisplay:10.37,2013-02-11 08:56:00,
2013-02-11 03:57:00,44.7,42.8,30.00,WNW,285,0.0,0.0,93,0.00,CLR,,0.00,WeatherDisplay:10.37,2013-02-11 08:57:00,
2013-02-11 04:00:00,44.7,43.1,30.00,WNW,286,0.0,0.0,94,0.00,CLR,,0.00,WeatherDisplay:10.37,2013-02-11 09:00:00,
2013-02-11 04:01:00,44.7,43.1,30.00,WNW,285,0.0,0.0,94,0.00,CLR,,0.00,WeatherDisplay:10.37,2013-02-11 09:01:00,
2013-02-11 04:02:00,44.7,43.1,30.00,WNW,285,0.0,0.0,94,0.00,CLR,,0.00,WeatherDisplay:10.37,2013-02-11 09:02:00,
2013-02-11 04:05:00,44.7,43.1,30.00,WNW,285,0.0,0.0,94,0.00,CLR,,0.00,WeatherDisplay:10.37,2013-02-11 09:05:00,
2013-02-11 04:06:00,44.7,43.1,30.00,WNW,286,0.0,0.0,94,0.00,CLR,,0.00,WeatherDisplay:10.37,2013-02-11 09:06:00,
2013-02-11 04:08:00,44.7,43.1,30.00,WNW,285,0.0,0.0,94,0.00,CLR,,0.00,WeatherDisplay:10.37,2013-02-11 09:08:00,
2013-02-11 04:11:00,44.7,43.1,30.00,WNW,285,0.0,0.0,94,0.00,CLR,,0.00,WeatherDisplay:10.37,2013-02-11 09:11:00,
2013-02-11 04:13:00,44.6,43.0,30.00,WNW,285,0.0,0.0,94,0.00,CLR,,0.00,WeatherDisplay:10.37,2013-02-11 09:13:00,
2013-02-11 04:16:00,44.5,42.9,30.00,WNW,286,0.0,0.0,94,0.00,CLR,,0.00,WeatherDisplay:10.37,2013-02-11 09:16:00,
2013-02-11 04:17:00,44.5,42.9,30.00,WNW,286,0.0,0.0,94,0.00,CLR,,0.00,WeatherDisplay:10.37,2013-02-11 09:17:00,
2013-02-11 04:18:00,44.5,42.9,30.00,WNW,286,0.0,0.0,94,0.00,CLR,,0.00,WeatherDisplay:10.37,2013-02-11 09:18:00,
2013-02-11 04:21:00,44.4,42.8,30.00,WNW,286,0.0,0.0,94,0.00,CLR,,0.00,WeatherDisplay:10.37,2013-02-11 09:21:00,
2013-02-11 04:22:00,44.4,42.8,30.00,WNW,285,0.0,0.0,94,0.00,CLR,,0.00,WeatherDisplay:10.37,2013-02-11 09:22:00,
2013-02-11 04:23:00,44.4,42.8,29.99,WNW,286,0.0,0.0,94,0.00,CLR,,0.00,WeatherDisplay:10.37,2013-02-11 09:23:00,
2013-02-11 04:26:00,44.4,42.8,30.00,WNW,286,0.0,0.0,94,0.00,CLR,,0.00,WeatherDisplay:10.37,2013-02-11 09:26:00,
2013-02-11 04:27:00,44.4,42.8,30.00,WNW,285,0.0,0.0,94,0.00,CLR,,0.00,WeatherDisplay:10.37,2013-02-11 09:27:00,
2013-02-11 04:28:00,44.4,42.8,29.99,WNW,285,0.0,0.0,94,0.00,CLR,,0.00,WeatherDisplay:10.37,2013-02-11 09:28:00,
2013-02-11 04:31:00,44.3,42.7,30.00,WNW,285,0.0,0.0,94,0.00,CLR,,0.00,WeatherDisplay:10.37,2013-02-11 09:31:00,
2013-02-11 04:32:00,44.3,42.7,30.00,WNW,286,0.0,0.0,94,0.00,CLR,,0.00,WeatherDisplay:10.37,2013-02-11 09:32:00,
2013-02-11 04:33:00,44.3,42.7,30.00,WNW,285,0.0,0.0,94,0.00,CLR,,0.00,WeatherDisplay:10.37,2013-02-11 09:33:00,
2013-02-11 04:36:00,44.3,42.7,30.00,WNW,285,0.0,0.0,94,0.00,CLR,,0.00,WeatherDisplay:10.37,2013-02-11 09:36:00,
2013-02-11 04:37:00,44.4,42.8,30.00,WNW,286,0.0,0.0,94,0.00,CLR,,0.00,WeatherDisplay:10.37,2013-02-11 09:37:00,
2013-02-11 04:38:00,44.4,42.8,30.00,WNW,286,0.0,0.0,94,0.00,CLR,,0.00,WeatherDisplay:10.37,2013-02-11 09:38:00,
2013-02-11 04:41:00,44.4,42.8,30.00,WNW,285,0.0,0.0,94,0.00,CLR,,0.00,WeatherDisplay:10.37,2013-02-11 09:41:00,
2013-02-11 04:42:00,44.4,43.1,30.00,WNW,285,0.0,0.0,95,0.00,CLR,,0.00,WeatherDisplay:10.37,2013-02-11 09:42:00,
2013-02-11 04:43:00,44.4,43.1,30.00,WNW,285,0.0,0.0,95,0.00,CLR,,0.00,WeatherDisplay:10.37,2013-02-11 09:43:00,
2013-02-11 04:46:00,44.5,43.2,30.00,WNW,285,0.0,0.0,95,0.00,CLR,,0.00,WeatherDisplay:10.37,2013-02-11 09:46:00,
2013-02-11 04:48:00,44.5,43.2,30.00,WNW,285,0.0,0.0,95,0.00,CLR,,0.00,WeatherDisplay:10.37,2013-02-11 09:48:00,
2013-02-11 04:49:00,44.5,43.2,30.00,WNW,286,0.0,0.0,95,0.00,CLR,,0.00,WeatherDisplay:10.37,2013-02-11 09:49:00,
2013-02-11 04:52:00,44.5,43.2,30.01,WNW,285,0.0,0.0,95,0.01,RA,,0.01,WeatherDisplay:10.37,2013-02-11 09:52:00,
2013-02-11 04:53:00,44.5,43.2,30.01,WNW,285,0.0,0.0,95,0.01,RA,,0.01,WeatherDisplay:10.37,2013-02-11 09:53:00,
2013-02-11 04:54:00,44.5,43.2,30.01,WNW,286,0.0,0.0,95,0.01,RA,,0.01,WeatherDisplay:10.37,2013-02-11 09:54:00,
2013-02-11 04:57:00,44.5,43.2,30.00,WNW,285,0.0,0.0,95,0.01,RA,,0.01,WeatherDisplay:10.37,2013-02-11 09:57:00,
2013-02-11 04:58:00,44.5,43.2,30.00,WNW,286,0.0,0.0,95,0.01,RA,,0.01,WeatherDisplay:10.37,2013-02-11 09:58:00,
2013-02-11 04:59:00,44.5,43.2,30.00,WNW,286,0.0,0.0,95,0.01,RA,,0.01,WeatherDisplay:10.37,2013-02-11 09:59:00,
2013-02-11 05:02:00,44.6,43.3,30.01,WNW,286,0.0,0.0,95,0.01,CLR,,0.01,WeatherDisplay:10.37,2013-02-11 10:02:00,
2013-02-11 05:04:00,44.6,43.3,30.01,WNW,287,0.0,0.0,95,0.01,CLR,,0.01,WeatherDisplay:10.37,2013-02-11 10:04:00,
2013-02-11 05:07:00,44.6,43.3,30.02,WNW,282,1.1,1.1,95,0.01,CLR,,0.01,WeatherDisplay:10.37,2013-02-11 10:07:00,
2013-02-11 05:09:00,44.6,43.3,30.02,WNW,282,0.0,0.0,95,0.01,CLR,,0.01,WeatherDisplay:10.37,2013-02-11 10:09:00,
2013-02-11 05:10:00,44.6,43.3,30.02,WNW,284,0.0,1.0,95,0.00,CLR,,0.01,WeatherDisplay:10.37,2013-02-11 10:10:00,
2013-02-11 05:12:00,44.7,43.4,30.02,WNW,282,1.1,1.1,95,0.02,RA,,0.02,WeatherDisplay:10.37,2013-02-11 10:12:00,
2013-02-11 05:15:00,44.7,43.4,30.01,WNW,282,0.0,1.0,95,0.00,RA,,0.02,WeatherDisplay:10.37,2013-02-11 10:15:00,
2013-02-11 05:17:00,44.7,43.4,30.02,WNW,283,0.0,0.0,95,0.02,RA,,0.02,WeatherDisplay:10.37,2013-02-11 10:17:00,
2013-02-11 05:20:00,44.7,43.4,30.02,WNW,282,0.0,0.0,95,0.02,RA,,0.02,WeatherDisplay:10.37,2013-02-11 10:20:00,
2013-02-11 05:21:00,44.7,43.4,30.02,WNW,282,0.0,0.0,95,0.02,RA,,0.02,WeatherDisplay:10.37,2013-02-11 10:21:00,
2013-02-11 05:23:00,44.7,43.4,30.01,WNW,282,0.0,0.0,95,0.02,CLR,,0.02,WeatherDisplay:10.37,2013-02-11 10:23:00,
2013-02-11 05:25:00,44.8,43.5,30.01,WNW,282,0.0,0.0,95,0.02,CLR,,0.02,WeatherDisplay:10.37,2013-02-11 10:25:00,
2013-02-11 05:26:00,44.8,43.5,30.01,WNW,282,0.0,0.0,95,0.02,CLR,,0.02,WeatherDisplay:10.37,2013-02-11 10:26:00,
2013-02-11 05:28:00,44.8,43.5,30.01,WNW,282,1.1,0.0,95,0.02,CLR,,0.02,WeatherDisplay:10.37,2013-02-11 10:28:00,
2013-02-11 05:30:00,44.8,43.5,30.01,WNW,282,1.1,1.1,95,0.02,CLR,,0.02,WeatherDisplay:10.37,2013-02-11 10:30:00,
2013-02-11 05:31:00,44.8,43.5,30.01,WNW,283,1.1,1.1,95,0.02,CLR,,0.02,WeatherDisplay:10.37,2013-02-11 10:31:00,
2013-02-11 05:33:00,44.8,43.7,30.01,WNW,282,0.0,0.0,96,0.02,CLR,,0.02,WeatherDisplay:10.37,2013-02-11 10:33:00,
2013-02-11 05:35:00,44.9,43.8,30.00,WNW,282,0.0,0.0,96,0.02,CLR,,0.02,WeatherDisplay:10.37,2013-02-11 10:35:00,
2013-02-11 05:36:00,44.8,43.7,30.00,WNW,282,0.0,0.0,96,0.02,CLR,,0.02,WeatherDisplay:10.37,2013-02-11 10:36:00,
2013-02-11 05:38:00,44.8,43.5,30.01,WNW,282,0.0,0.0,95,0.02,CLR,,0.02,WeatherDisplay:10.37,2013-02-11 10:38:00,
2013-02-11 05:40:00,44.9,43.8,30.01,WNW,282,0.0,0.0,96,0.02,CLR,,0.02,WeatherDisplay:10.37,2013-02-11 10:40:00,
2013-02-11 05:41:00,44.8,43.7,30.01,WNW,282,0.0,0.0,96,0.02,CLR,,0.02,WeatherDisplay:10.37,2013-02-11 10:41:00,
2013-02-11 05:42:00,44.9,43.8,30.01,WNW,282,0.0,0.0,96,0.02,CLR,,0.02,WeatherDisplay:10.37,2013-02-11 10:42:00,
2013-02-11 05:43:00,44.8,43.7,30.01,WNW,283,0.0,0.0,96,0.02,CLR,,0.02,WeatherDisplay:10.37,2013-02-11 10:43:00,
2013-02-11 05:45:00,44.8,43.7,30.00,WNW,282,0.0,0.0,96,0.02,CLR,,0.02,WeatherDisplay:10.37,2013-02-11 10:45:00,
2013-02-11 05:46:00,44.8,43.7,30.00,WNW,282,0.0,0.0,96,0.02,CLR,,0.02,WeatherDisplay:10.37,2013-02-11 10:46:00,
2013-02-11 05:47:00,44.8,43.7,30.00,WNW,282,0.0,0.1,96,0.02,CLR,,0.02,WeatherDisplay:10.37,2013-02-11 10:47:00,
2013-02-11 05:49:00,44.8,43.7,30.00,WNW,282,1.1,0.0,96,0.02,CLR,,0.02,WeatherDisplay:10.37,2013-02-11 10:49:00,
2013-02-11 05:51:00,44.8,43.7,30.00,WNW,283,1.1,0.0,96,0.01,CLR,,0.02,WeatherDisplay:10.37,2013-02-11 10:51:00,
2013-02-11 05:53:00,44.8,43.7,30.00,WNW,282,0.0,0.0,96,0.01,CLR,,0.02,WeatherDisplay:10.37,2013-02-11 10:53:00,
2013-02-11 05:54:00,44.9,43.8,30.00,WNW,282,0.0,0.0,96,0.01,CLR,,0.02,WeatherDisplay:10.37,2013-02-11 10:54:00,
2013-02-11 05:56:00,44.9,43.8,30.00,WNW,282,0.0,0.0,96,0.01,CLR,,0.02,WeatherDisplay:10.37,2013-02-11 10:56:00,
2013-02-11 05:57:00,44.8,43.7,29.99,WNW,282,0.0,0.0,96,0.01,CLR,,0.02,WeatherDisplay:10.37,2013-02-11 10:57:00,
2013-02-11 05:58:00,44.9,43.8,30.00,WNW,282,0.0,0.0,96,0.01,CLR,,0.02,WeatherDisplay:10.37,2013-02-11 10:58:00,
2013-02-11 05:59:00,44.9,43.8,30.00,WNW,282,0.0,0.0,96,0.01,CLR,,0.02,WeatherDisplay:10.37,2013-02-11 10:59:00,
2013-02-11 06:01:00,44.8,43.7,30.00,WNW,282,0.0,0.0,96,0.01,CLR,,0.02,WeatherDisplay:10.37,2013-02-11 11:01:00,
2013-02-11 06:02:00,44.9,43.8,30.00,WNW,282,0.0,0.0,96,0.01,CLR,,0.02,WeatherDisplay:10.37,2013-02-11 11:02:00,
2013-02-11 06:03:00,44.9,43.8,30.00,WNW,282,0.0,0.0,96,0.01,CLR,,0.02,WeatherDisplay:10.37,2013-02-11 11:03:00,
2013-02-11 06:04:00,44.9,43.8,30.00,WNW,282,0.0,0.0,96,0.01,CLR,,0.02,WeatherDisplay:10.37,2013-02-11 11:04:00,
2013-02-11 06:07:00,44.9,43.8,30.00,WNW,282,0.0,0.0,96,0.01,CLR,,0.02,WeatherDisplay:10.37,2013-02-11 11:07:00,
2013-02-11 06:08:00,44.9,43.8,29.99,WNW,282,0.0,0.0,96,0.01,CLR,,0.02,WeatherDisplay:10.37,2013-02-11 11:08:00,
2013-02-11 06:09:00,44.9,43.8,29.99,WNW,282,0.0,0.0,96,0.01,CLR,,0.02,WeatherDisplay:10.37,2013-02-11 11:09:00,
2013-02-11 06:13:00,44.9,43.8,29.99,WNW,282,0.0,0.1,96,0.00,CLR,,0.02,WeatherDisplay:10.37,2013-02-11 11:13:00,
2013-02-11 06:14:00,44.9,43.8,29.99,SSE,158,1.1,1.1,96,0.00,CLR,,0.02,WeatherDisplay:10.37,2013-02-11 11:14:00,
2013-02-11 06:18:00,45.1,44.0,29.98,SSE,157,1.1,1.1,96,0.00,CLR,,0.02,WeatherDisplay:10.37,2013-02-11 11:18:00,
2013-02-11 06:19:00,45.1,44.0,29.98,SSE,157,1.1,0.0,96,0.00,CLR,,0.02,WeatherDisplay:10.37,2013-02-11 11:19:00,
2013-02-11 06:23:00,45.2,44.1,29.99,SSE,157,1.1,1.1,96,0.00,CLR,,0.02,WeatherDisplay:10.37,2013-02-11 11:23:00,
2013-02-11 06:25:00,45.1,44.0,29.98,SSE,157,0.0,0.0,96,0.00,CLR,,0.02,WeatherDisplay:10.37,2013-02-11 11:25:00,
2013-02-11 06:28:00,45.1,44.0,29.98,SSE,157,0.0,0.0,96,0.00,CLR,,0.02,WeatherDisplay:10.37,2013-02-11 11:28:00,
2013-02-11 06:30:00,45.1,44.0,29.98,SSE,157,0.0,0.0,96,0.00,CLR,,0.02,WeatherDisplay:10.37,2013-02-11 11:30:00,
2013-02-11 06:33:00,45.1,44.0,29.99,SSE,157,0.0,0.0,96,0.00,CLR,,0.02,WeatherDisplay:10.37,2013-02-11 11:33:00,
2013-02-11 06:34:00,45.1,44.0,29.99,SSE,156,0.0,0.0,96,0.00,CLR,,0.02,WeatherDisplay:10.37,2013-02-11 11:34:00,
2013-02-11 06:35:00,45.1,44.0,29.99,SSE,157,0.0,0.0,96,0.00,CLR,,0.02,WeatherDisplay:10.37,2013-02-11 11:35:00,
2013-02-11 06:38:00,45.1,44.0,29.99,SSE,157,0.0,0.0,96,0.00,CLR,,0.02,WeatherDisplay:10.37,2013-02-11 11:38:00,
2013-02-11 06:39:00,45.1,44.0,29.99,SSE,157,0.0,0.0,96,0.00,CLR,,0.02,WeatherDisplay:10.37,2013-02-11 11:39:00,
2013-02-11 06:40:00,45.1,44.0,29.99,SSE,157,0.0,0.0,96,0.00,CLR,,0.02,WeatherDisplay:10.37,2013-02-11 11:40:00,
2013-02-11 06:43:00,45.0,43.9,29.99,SSE,157,0.0,0.0,96,0.00,CLR,,0.02,WeatherDisplay:10.37,2013-02-11 11:43:00,
2013-02-11 06:44:00,45.0,43.9,29.99,SSE,157,0.0,0.0,96,0.00,CLR,,0.02,WeatherDisplay:10.37,2013-02-11 11:44:00,
2013-02-11 06:46:00,45.0,43.9,29.99,SSE,157,1.1,1.1,96,0.00,CLR,,0.02,WeatherDisplay:10.37,2013-02-11 11:46:00,
2013-02-11 06:48:00,45.0,43.9,29.99,SSE,157,1.0,1.0,96,0.00,CLR,,0.02,WeatherDisplay:10.37,2013-02-11 11:48:00,
2013-02-11 06:49:00,45.0,43.9,29.99,SSE,157,1.1,1.1,96,0.00,CLR,,0.02,WeatherDisplay:10.37,2013-02-11 11:49:00,
2013-02-11 06:51:00,45.0,43.9,29.99,SSE,156,0.0,0.0,96,0.00,CLR,,0.02,WeatherDisplay:10.37,2013-02-11 11:51:00,
2013-02-11 06:53:00,45.0,43.9,29.99,SSE,157,1.1,1.1,96,0.00,CLR,,0.02,WeatherDisplay:10.37,2013-02-11 11:53:00,
2013-02-11 06:54:00,45.0,43.9,29.99,SSE,157,0.0,0.0,96,0.00,CLR,,0.02,WeatherDisplay:10.37,2013-02-11 11:54:00,
2013-02-11 06:56:00,45.0,43.9,29.99,SSE,157,0.0,0.0,96,0.00,CLR,,0.02,WeatherDisplay:10.37,2013-02-11 11:56:00,
2013-02-11 06:59:00,45.0,43.9,29.99,SSE,157,0.0,0.0,96,0.00,CLR,,0.02,WeatherDisplay:10.37,2013-02-11 11:59:00,
2013-02-11 07:02:00,45.0,43.9,29.99,SSE,157,0.0,0.0,96,0.00,CLR,,0.02,WeatherDisplay:10.37,2013-02-11 12:02:00,
2013-02-11 07:04:00,45.0,43.9,29.99,SSE,157,1.1,0.0,96,0.00,CLR,,0.02,WeatherDisplay:10.37,2013-02-11 12:04:00,
2013-02-11 07:05:00,45.0,43.9,29.99,SSE,156,1.1,0.0,96,0.00,CLR,,0.02,WeatherDisplay:10.37,2013-02-11 12:05:00,
2013-02-11 07:07:00,45.0,43.9,29.99,SSE,157,0.0,0.0,96,0.00,CLR,,0.02,WeatherDisplay:10.37,2013-02-11 12:07:00,
2013-02-11 07:09:00,44.9,43.8,29.99,SSE,157,0.0,0.0,96,0.00,CLR,,0.02,WeatherDisplay:10.37,2013-02-11 12:09:00,
2013-02-11 07:10:00,44.9,43.8,29.99,SSE,157,0.0,0.0,96,0.00,CLR,,0.02,WeatherDisplay:10.37,2013-02-11 12:10:00,
2013-02-11 07:12:00,45.0,43.9,29.99,SSE,157,0.0,0.0,96,0.00,CLR,,0.02,WeatherDisplay:10.37,2013-02-11 12:12:00,
2013-02-11 07:14:00,45.0,43.9,29.99,SSE,157,0.0,0.0,96,0.00,CLR,,0.02,WeatherDisplay:10.37,2013-02-11 12:14:00,
2013-02-11 07:15:00,45.0,43.9,29.99,SSE,157,0.0,0.0,96,0.00,CLR,,0.02,WeatherDisplay:10.37,2013-02-11 12:15:00,
2013-02-11 07:17:00,44.9,43.8,30.00,SSE,157,0.0,0.0,96,0.00,CLR,,0.02,WeatherDisplay:10.37,2013-02-11 12:17:00,
2013-02-11 07:19:00,44.8,43.7,30.00,WSW,245,0.0,0.0,96,0.00,CLR,,0.02,WeatherDisplay:10.37,2013-02-11 12:19:00,
2013-02-11 07:20:00,44.8,43.8,30.00,South,171,0.0,0.0,96,0.00,CLR,,0.02,WeatherDisplay:10.37,2013-02-11 12:20:00,
2013-02-11 07:23:00,44.7,43.6,30.00,WSW,246,0.0,0.0,96,0.00,CLR,,0.02,WeatherDisplay:10.37,2013-02-11 12:23:00,
2013-02-11 07:24:00,44.7,43.6,30.00,WSW,248,1.1,1.1,96,0.00,CLR,,0.02,WeatherDisplay:10.37,2013-02-11 12:24:00,
2013-02-11 07:25:00,44.7,43.6,30.00,WSW,249,1.1,1.1,96,0.00,CLR,,0.02,WeatherDisplay:10.37,2013-02-11 12:25:00,
2013-02-11 07:28:00,44.7,43.6,30.00,WSW,249,0.0,0.0,96,0.00,CLR,,0.02,WeatherDisplay:10.37,2013-02-11 12:28:00,
2013-02-11 07:30:00,44.7,43.6,30.00,WSW,248,0.0,0.0,96,0.00,CLR,,0.02,WeatherDisplay:10.37,2013-02-11 12:30:00,
2013-02-11 07:33:00,44.6,43.5,30.00,WSW,249,0.0,0.0,96,0.00,CLR,,0.02,WeatherDisplay:10.37,2013-02-11 12:33:00,
2013-02-11 07:35:00,44.6,43.5,30.00,WSW,248,0.0,0.0,96,0.00,CLR,,0.02,WeatherDisplay:10.37,2013-02-11 12:35:00,
2013-02-11 07:38:00,44.6,43.5,30.00,WSW,249,0.0,0.0,96,0.00,CLR,,0.02,WeatherDisplay:10.37,2013-02-11 12:38:00,
2013-02-11 07:40:00,44.6,43.5,30.00,WSW,249,0.0,0.0,96,0.00,CLR,,0.02,WeatherDisplay:10.37,2013-02-11 12:40:00,
2013-02-11 07:43:00,44.6,43.8,30.00,WSW,249,0.0,0.0,97,0.00,CLR,,0.02,WeatherDisplay:10.37,2013-02-11 12:43:00,
2013-02-11 07:45:00,44.6,43.8,30.00,WSW,248,0.0,0.0,97,0.00,CLR,,0.02,WeatherDisplay:10.37,2013-02-11 12:45:00,
2013-02-11 07:48:00,44.6,43.8,30.00,West,261,1.1,1.1,97,0.00,CLR,,0.02,WeatherDisplay:10.37,2013-02-11 12:48:00,
2013-02-11 07:50:00,44.6,43.8,30.00,West,261,1.1,0.0,97,0.00,CLR,,0.02,WeatherDisplay:10.37,2013-02-11 12:50:00,
2013-02-11 07:51:00,44.6,43.8,30.00,West,262,0.0,0.0,97,0.00,CLR,,0.02,WeatherDisplay:10.37,2013-02-11 12:51:00,
2013-02-11 07:54:00,44.7,43.9,30.01,West,261,0.0,0.0,97,0.00,CLR,,0.02,WeatherDisplay:10.37,2013-02-11 12:54:00,
2013-02-11 07:55:00,44.7,43.9,30.00,West,262,0.0,0.0,97,0.00,CLR,,0.02,WeatherDisplay:10.37,2013-02-11 12:55:00,
2013-02-11 07:56:00,44.7,43.9,30.00,West,262,0.0,0.0,97,0.00,CLR,,0.02,WeatherDisplay:10.37,2013-02-11 12:56:00,
2013-02-11 08:00:00,44.7,43.9,30.00,West,260,1.1,1.1,97,0.00,CLR,,0.02,WeatherDisplay:10.37,2013-02-11 13:00:00,
2013-02-11 08:01:00,44.8,44.0,30.00,West,260,1.1,0.0,97,0.00,CLR,,0.02,WeatherDisplay:10.37,2013-02-11 13:01:00,
2013-02-11 08:05:00,44.8,44.0,30.00,West,260,1.0,0.0,97,0.00,CLR,,0.02,WeatherDisplay:10.37,2013-02-11 13:05:00,
2013-02-11 08:06:00,44.8,44.0,30.00,West,260,1.0,1.1,97,0.00,CLR,,0.02,WeatherDisplay:10.37,2013-02-11 13:06:00,
2013-02-11 08:07:00,44.9,44.1,30.00,West,260,2.3,2.3,97,0.00,CLR,,0.02,WeatherDisplay:10.37,2013-02-11 13:07:00,
2013-02-11 08:10:00,44.9,44.1,30.01,West,260,0.0,0.0,97,0.00,CLR,,0.02,WeatherDisplay:10.37,2013-02-11 13:10:00,
2013-02-11 08:11:00,45.0,44.2,30.01,West,260,0.0,0.0,97,0.00,CLR,,0.02,WeatherDisplay:10.37,2013-02-11 13:11:00,
2013-02-11 08:12:00,45.0,44.2,30.01,West,260,0.0,0.0,97,0.00,CLR,,0.02,WeatherDisplay:10.37,2013-02-11 13:12:00,
2013-02-11 08:15:00,45.1,44.3,30.01,West,260,1.1,1.1,97,0.00,CLR,,0.02,WeatherDisplay:10.37,2013-02-11 13:15:00,
2013-02-11 08:16:00,45.1,44.3,30.01,West,260,1.1,1.1,97,0.00,CLR,,0.02,WeatherDisplay:10.37,2013-02-11 13:16:00,
2013-02-11 08:17:00,45.2,44.4,30.01,West,260,0.0,0.0,97,0.00,CLR,,0.02,WeatherDisplay:10.37,2013-02-11 13:17:00,
2013-02-11 08:21:00,45.3,44.5,30.01,West,260,0.0,0.0,97,0.00,CLR,,0.02,WeatherDisplay:10.37,2013-02-11 13:21:00,
2013-02-11 08:22:00,45.3,44.5,30.01,West,260,0.0,0.0,97,0.00,CLR,,0.02,WeatherDisplay:10.37,2013-02-11 13:22:00,
2013-02-11 08:26:00,45.4,44.6,30.02,WNW,283,1.1,1.1,97,0.00,CLR,,0.02,WeatherDisplay:10.37,2013-02-11 13:26:00,
2013-02-11 08:27:00,45.5,44.7,30.02,WNW,292,2.0,2.0,97,0.00,CLR,,0.02,WeatherDisplay:10.37,2013-02-11 13:27:00,
2013-02-11 08:31:00,45.6,44.8,30.03,WNW,286,4.0,4.0,97,0.00,CLR,,0.02,WeatherDisplay:10.37,2013-02-11 13:31:00,
2013-02-11 08:32:00,45.6,44.8,30.03,WNW,290,3.5,3.5,97,0.00,CLR,,0.02,WeatherDisplay:10.37,2013-02-11 13:32:00,
2013-02-11 08:33:00,45.6,44.8,30.02,WNW,283,3.5,3.5,97,0.00,CLR,,0.02,WeatherDisplay:10.37,2013-02-11 13:33:00,
2013-02-11 08:36:00,45.7,44.9,30.02,WNW,290,2.3,2.3,97,0.00,CLR,,0.02,WeatherDisplay:10.37,2013-02-11 13:36:00,
2013-02-11 08:37:00,45.7,44.9,30.02,WNW,290,1.1,1.1,97,0.00,CLR,,0.02,WeatherDisplay:10.37,2013-02-11 13:37:00,
2013-02-11 08:38:00,45.8,45.0,30.02,SSW,200,2.3,2.3,97,0.00,CLR,,0.02,WeatherDisplay:10.37,2013-02-11 13:38:00,
2013-02-11 08:42:00,45.9,45.1,30.02,WNW,289,2.3,2.3,97,0.00,CLR,,0.02,WeatherDisplay:10.37,2013-02-11 13:42:00,
2013-02-11 08:43:00,46.0,45.2,30.02,WNW,294,2.3,2.3,97,0.00,CLR,,0.02,WeatherDisplay:10.37,2013-02-11 13:43:00,
2013-02-11 08:47:00,46.3,45.5,30.02,WNW,293,0.0,0.0,97,0.00,CLR,,0.02,WeatherDisplay:10.37,2013-02-11 13:47:00,
2013-02-11 08:48:00,46.3,45.5,30.02,WNW,293,0.0,0.0,97,0.00,CLR,,0.02,WeatherDisplay:10.37,2013-02-11 13:48:00,
2013-02-11 08:52:00,46.7,46.2,30.02,WNW,293,0.0,0.0,98,0.00,CLR,,0.02,WeatherDisplay:10.37,2013-02-11 13:52:00,
2013-02-11 08:53:00,46.8,46.3,30.02,WNW,293,0.0,0.0,98,0.00,CLR,,0.02,WeatherDisplay:10.37,2013-02-11 13:53:00,
2013-02-11 08:58:00,47.0,46.2,30.02,WNW,294,0.0,0.0,97,0.00,CLR,,0.02,WeatherDisplay:10.37,2013-02-11 13:58:00,
2013-02-11 09:03:00,47.2,46.4,30.02,WNW,293,0.0,0.0,97,0.00,CLR,,0.02,WeatherDisplay:10.37,2013-02-11 14:03:00,
2013-02-11 09:08:00,47.3,46.5,30.02,WNW,293,0.0,0.0,97,0.00,CLR,,0.02,WeatherDisplay:10.37,2013-02-11 14:08:00,
2013-02-11 09:09:00,47.3,46.5,30.01,WNW,293,0.0,0.0,97,0.00,CLR,,0.02,WeatherDisplay:10.37,2013-02-11 14:09:00,
2013-02-11 09:13:00,47.5,46.7,30.01,WNW,294,0.0,0.0,97,0.00,CLR,,0.02,WeatherDisplay:10.37,2013-02-11 14:13:00,
2013-02-11 09:14:00,47.5,46.7,30.01,WNW,293,0.0,0.0,97,0.00,CLR,,0.02,WeatherDisplay:10.37,2013-02-11 14:14:00,
2013-02-11 09:18:00,47.7,46.9,30.02,WNW,293,1.1,1.1,97,0.01,RA,,0.03,WeatherDisplay:10.37,2013-02-11 14:18:00,
2013-02-11 09:19:00,47.7,46.9,30.02,WNW,293,1.1,1.1,97,0.01,RA,,0.03,WeatherDisplay:10.37,2013-02-11 14:19:00,
2013-02-11 09:24:00,47.9,47.1,30.04,West,269,3.5,3.5,97,0.01,RA,,0.03,WeatherDisplay:10.37,2013-02-11 14:24:00,
2013-02-11 09:29:00,48.1,47.3,30.02,West,267,0.0,0.0,97,0.02,RA,,0.04,WeatherDisplay:10.37,2013-02-11 14:29:00,
2013-02-11 09:30:00,48.2,47.4,30.03,West,267,1.1,0.0,97,0.02,RA,,0.04,WeatherDisplay:10.37,2013-02-11 14:30:00,
2013-02-11 09:34:00,48.5,47.7,30.02,West,267,1.1,1.1,97,0.02,RA,,0.04,WeatherDisplay:10.37,2013-02-11 14:34:00,
2013-02-11 09:35:00,48.5,47.7,30.02,WNW,282,3.5,3.5,97,0.02,RA,,0.04,WeatherDisplay:10.37,2013-02-11 14:35:00,
2013-02-11 09:39:00,48.8,48.0,30.02,West,279,3.5,3.5,97,0.02,CLR,,0.04,WeatherDisplay:10.37,2013-02-11 14:39:00,
2013-02-11 09:40:00,48.8,48.0,30.02,West,276,3.5,3.5,97,0.02,CLR,,0.04,WeatherDisplay:10.37,2013-02-11 14:40:00,
2013-02-11 09:44:00,49.1,48.3,30.02,WSW,248,4.0,4.0,97,0.02,CLR,,0.04,WeatherDisplay:10.37,2013-02-11 14:44:00,
2013-02-11 09:45:00,49.1,48.3,30.02,WSW,257,3.5,3.5,97,0.02,CLR,,0.04,WeatherDisplay:10.37,2013-02-11 14:45:00,
2013-02-11 09:49:00,49.4,48.6,30.02,WSW,254,4.6,4.6,97,0.02,CLR,,0.04,WeatherDisplay:10.37,2013-02-11 14:49:00,
2013-02-11 09:50:00,49.4,48.6,30.02,West,261,2.3,2.3,97,0.02,CLR,,0.04,WeatherDisplay:10.37,2013-02-11 14:50:00,
2013-02-11 09:55:00,49.5,48.7,30.03,WSW,258,2.0,6.0,97,0.00,CLR,,0.04,WeatherDisplay:10.37,2013-02-11 14:55:00,
2013-02-11 09:56:00,49.6,48.8,30.02,WSW,253,6.0,6.0,97,0.02,CLR,,0.04,WeatherDisplay:10.37,2013-02-11 14:56:00,
2013-02-11 10:00:00,49.8,49.0,30.03,WSW,241,4.6,4.6,97,0.02,CLR,,0.04,WeatherDisplay:10.37,2013-02-11 15:00:00,
2013-02-11 10:01:00,49.9,49.1,30.02,WSW,252,4.6,4.6,97,0.02,CLR,,0.04,WeatherDisplay:10.37,2013-02-11 15:01:00,
2013-02-11 10:02:00,49.9,49.1,30.03,WSW,243,5.8,5.8,97,0.02,CLR,,0.04,WeatherDisplay:10.37,2013-02-11 15:02:00,
2013-02-11 10:05:00,50.2,49.1,30.02,West,264,6.0,6.0,96,0.02,CLR,,0.04,WeatherDisplay:10.37,2013-02-11 15:05:00,
2013-02-11 10:06:00,50.2,49.1,30.02,West,267,7.0,7.0,96,0.02,CLR,,0.04,WeatherDisplay:10.37,2013-02-11 15:06:00,
2013-02-11 10:07:00,50.3,49.2,30.02,WSW,254,10.4,10.4,96,0.02,CLR,,0.04,WeatherDisplay:10.37,2013-02-11 15:07:00,
2013-02-11 10:11:00,50.6,49.2,30.02,SW,223,9.2,9.2,95,0.02,CLR,,0.04,WeatherDisplay:10.37,2013-02-11 15:11:00,
2013-02-11 10:12:00,50.7,49.3,30.02,WSW,253,7.0,7.0,95,0.02,CLR,,0.04,WeatherDisplay:10.37,2013-02-11 15:12:00,
2013-02-11 10:16:00,50.9,49.5,30.02,SW,227,8.0,8.0,95,0.02,CLR,,0.04,WeatherDisplay:10.37,2013-02-11 15:16:00,
2013-02-11 10:17:00,51.0,49.3,30.02,WSW,242,11.5,11.5,94,0.01,CLR,,0.04,WeatherDisplay:10.37,2013-02-11 15:17:00,
2013-02-11 10:21:00,51.2,49.5,30.02,West,271,3.5,3.5,94,0.01,CLR,,0.04,WeatherDisplay:10.37,2013-02-11 15:21:00,
2013-02-11 10:22:00,51.2,49.5,30.02,WSW,252,4.6,4.6,94,0.01,CLR,,0.04,WeatherDisplay:10.37,2013-02-11 15:22:00,
2013-02-11 10:26:00,51.3,49.3,30.02,WSW,253,5.8,5.8,93,0.01,CLR,,0.04,WeatherDisplay:10.37,2013-02-11 15:26:00,
2013-02-11 10:27:00,51.3,49.3,30.02,West,260,6.9,6.9,93,0.01,CLR,,0.04,WeatherDisplay:10.37,2013-02-11 15:27:00,
2013-02-11 10:31:00,51.4,49.4,30.02,West,269,4.6,4.6,93,0.00,CLR,,0.04,WeatherDisplay:10.37,2013-02-11 15:31:00,
2013-02-11 10:32:00,51.4,49.4,30.02,WSW,239,10.0,10.0,93,0.00,CLR,,0.04,WeatherDisplay:10.37,2013-02-11 15:32:00,
2013-02-11 10:33:00,51.4,49.4,30.02,WSW,243,10.4,10.4,93,0.00,CLR,,0.04,WeatherDisplay:10.37,2013-02-11 15:33:00,
2013-02-11 10:36:00,51.4,49.4,30.02,WSW,237,3.5,3.5,93,0.00,CLR,,0.04,WeatherDisplay:10.37,2013-02-11 15:36:00,
2013-02-11 10:37:00,51.4,49.4,30.02,WSW,239,4.0,4.0,93,0.00,CLR,,0.04,WeatherDisplay:10.37,2013-02-11 15:37:00,
2013-02-11 10:38:00,51.4,49.4,30.02,West,281,8.1,8.1,93,0.00,CLR,,0.04,WeatherDisplay:10.37,2013-02-11 15:38:00,
2013-02-11 10:41:00,51.3,49.3,30.02,WSW,247,3.5,3.5,93,0.00,CLR,,0.04,WeatherDisplay:10.37,2013-02-11 15:41:00,
2013-02-11 10:42:00,51.3,49.3,30.02,WSW,250,1.1,1.1,93,0.00,CLR,,0.04,WeatherDisplay:10.37,2013-02-11 15:42:00,
2013-02-11 10:43:00,51.3,49.3,30.01,West,259,4.0,4.0,93,0.00,CLR,,0.04,WeatherDisplay:10.37,2013-02-11 15:43:00,
2013-02-11 10:46:00,51.2,49.2,30.01,WSW,251,3.5,3.5,93,0.00,CLR,,0.04,WeatherDisplay:10.37,2013-02-11 15:46:00,
2013-02-11 10:48:00,51.2,49.2,30.01,WSW,251,8.1,8.1,93,0.00,CLR,,0.04,WeatherDisplay:10.37,2013-02-11 15:48:00,
2013-02-11 10:52:00,51.2,49.2,30.01,West,264,5.0,5.0,93,0.00,CLR,,0.04,WeatherDisplay:10.37,2013-02-11 15:52:00,
2013-02-11 10:53:00,51.2,49.2,30.01,WSW,244,5.8,5.8,93,0.00,CLR,,0.04,WeatherDisplay:10.37,2013-02-11 15:53:00,
2013-02-11 10:58:00,51.2,49.2,30.01,WSW,253,10.4,10.4,93,0.00,CLR,,0.04,WeatherDisplay:10.37,2013-02-11 15:58:00,
2013-02-11 11:03:00,51.1,49.1,30.01,SW,217,4.6,4.6,93,0.00,CLR,,0.04,WeatherDisplay:10.37,2013-02-11 16:03:00,
2013-02-11 11:05:00,51.1,49.1,30.01,WSW,240,2.0,9.0,93,0.00,CLR,,0.04,WeatherDisplay:10.37,2013-02-11 16:05:00,
2013-02-11 11:08:00,51.1,49.4,30.00,WSW,247,2.3,2.3,94,0.00,CLR,,0.04,WeatherDisplay:10.37,2013-02-11 16:08:00,
2013-02-11 11:10:00,51.1,49.4,30.00,West,266,4.6,4.6,94,0.00,CLR,,0.04,WeatherDisplay:10.37,2013-02-11 16:10:00,
2013-02-11 11:13:00,51.2,49.5,30.01,WSW,244,5.8,5.8,94,0.00,CLR,,0.04,WeatherDisplay:10.37,2013-02-11 16:13:00,
2013-02-11 11:14:00,51.2,49.5,30.02,WSW,257,5.8,5.8,94,0.00,CLR,,0.04,WeatherDisplay:10.37,2013-02-11 16:14:00,
2013-02-11 11:16:00,51.3,49.6,30.02,WSW,241,5.8,5.8,94,0.00,CLR,,0.04,WeatherDisplay:10.37,2013-02-11 16:16:00,
2013-02-11 11:19:00,51.4,49.7,30.02,West,269,11.5,11.5,94,0.00,CLR,,0.04,WeatherDisplay:10.37,2013-02-11 16:19:00,
2013-02-11 11:21:00,51.4,49.4,30.02,WSW,241,5.8,5.8,93,0.00,CLR,,0.04,WeatherDisplay:10.37,2013-02-11 16:21:00,
2013-02-11 11:24:00,51.5,49.5,30.03,WSW,244,11.5,11.5,93,0.00,CLR,,0.04,WeatherDisplay:10.37,2013-02-11 16:24:00,
2013-02-11 11:26:00,51.6,49.6,30.03,SW,230,6.9,6.9,93,0.00,CLR,,0.04,WeatherDisplay:10.37,2013-02-11 16:26:00,
2013-02-11 11:29:00,51.7,49.7,30.03,WSW,258,6.9,6.9,93,0.00,CLR,,0.04,WeatherDisplay:10.37,2013-02-11 16:29:00,
2013-02-11 11:31:00,51.7,49.7,30.03,WSW,251,5.8,5.8,93,0.00,CLR,,0.04,WeatherDisplay:10.37,2013-02-11 16:31:00,
2013-02-11 11:34:00,51.7,49.7,30.02,WSW,249,9.2,9.2,93,0.00,CLR,,0.04,WeatherDisplay:10.37,2013-02-11 16:34:00,
2013-02-11 11:37:00,51.8,49.5,30.02,West,259,8.1,8.1,92,0.00,CLR,,0.04,WeatherDisplay:10.37,2013-02-11 16:37:00,
2013-02-11 11:39:00,51.9,49.6,30.02,WSW,239,5.8,5.8,92,0.00,CLR,,0.04,WeatherDisplay:10.37,2013-02-11 16:39:00,
2013-02-11 11:40:00,51.9,49.6,30.02,West,272,5.8,5.8,92,0.00,CLR,,0.04,WeatherDisplay:10.37,2013-02-11 16:40:00,
2013-02-11 11:42:00,52.0,49.7,30.02,WSW,257,8.1,8.1,92,0.00,CLR,,0.04,WeatherDisplay:10.37,2013-02-11 16:42:00,
2013-02-11 11:45:00,52.0,49.7,30.02,WSW,253,5.0,12.0,92,0.00,CLR,,0.04,WeatherDisplay:10.37,2013-02-11 16:45:00,
2013-02-11 11:46:00,52.1,49.8,30.02,SW,231,9.2,9.2,92,0.00,CLR,,0.04,WeatherDisplay:10.37,2013-02-11 16:46:00,
2013-02-11 11:47:00,52.1,49.6,30.02,West,269,9.2,9.2,91,0.00,CLR,,0.04,WeatherDisplay:10.37,2013-02-11 16:47:00,
2013-02-11 11:50:00,52.1,49.6,30.02,WSW,252,6.0,12.0,91,0.00,CLR,,0.04,WeatherDisplay:10.37,2013-02-11 16:50:00,
2013-02-11 11:51:00,52.1,49.6,30.02,WNW,293,16.1,16.1,91,0.00,CLR,,0.04,WeatherDisplay:10.37,2013-02-11 16:51:00,
2013-02-11 11:52:00,52.1,49.6,30.02,WSW,250,16.1,16.1,91,0.00,CLR,,0.04,WeatherDisplay:10.37,2013-02-11 16:52:00,
2013-02-11 11:55:00,52.1,49.6,30.02,WNW,282,10.0,10.0,91,0.00,CLR,,0.04,WeatherDisplay:10.37,2013-02-11 16:55:00,
2013-02-11 11:56:00,52.1,49.6,30.02,West,267,10.4,10.4,91,0.00,CLR,,0.04,WeatherDisplay:10.37,2013-02-11 16:56:00,
2013-02-11 11:57:00,52.1,49.6,30.02,SW,219,7.0,7.0,91,0.00,CLR,,0.04,WeatherDisplay:10.37,2013-02-11 16:57:00,
2013-02-11 12:00:00,52.1,49.6,30.02,WSW,251,8.1,8.1,91,0.00,CLR,,0.04,WeatherDisplay:10.37,2013-02-11 17:00:00,
2013-02-11 12:01:00,52.0,49.5,30.02,WSW,243,9.2,9.2,91,0.00,CLR,,0.04,WeatherDisplay:10.37,2013-02-11 17:01:00,
2013-02-11 12:03:00,52.0,49.5,30.02,West,274,6.9,6.9,91,0.00,CLR,,0.04,WeatherDisplay:10.37,2013-02-11 17:03:00,
2013-02-11 12:05:00,52.1,49.6,30.02,West,264,11.5,11.5,91,0.00,CLR,,0.04,WeatherDisplay:10.37,2013-02-11 17:05:00,
2013-02-11 12:06:00,52.1,49.6,30.02,West,262,6.9,6.9,91,0.00,CLR,,0.04,WeatherDisplay:10.37,2013-02-11 17:06:00,
2013-02-11 12:07:00,52.1,49.6,30.02,West,281,6.9,6.9,91,0.00,CLR,,0.04,WeatherDisplay:10.37,2013-02-11 17:07:00,
2013-02-11 12:08:00,52.1,49.6,30.02,NNW,347,11.5,11.5,91,0.00,CLR,,0.04,WeatherDisplay:10.37,2013-02-11 17:08:00,
2013-02-11 12:10:00,52.1,49.6,30.02,SW,235,13.8,13.8,91,0.00,CLR,,0.04,WeatherDisplay:10.37,2013-02-11 17:10:00,
2013-02-11 12:11:00,52.1,49.6,30.02,WSW,241,13.8,13.8,91,0.00,CLR,,0.04,WeatherDisplay:10.37,2013-02-11 17:11:00,
2013-02-11 12:12:00,52.2,49.7,30.01,WSW,253,13.8,13.8,91,0.00,CLR,,0.04,WeatherDisplay:10.37,2013-02-11 17:12:00,
2013-02-11 12:13:00,52.2,49.7,30.02,West,264,8.0,8.0,91,0.00,CLR,,0.04,WeatherDisplay:10.37,2013-02-11 17:13:00,
2013-02-11 12:15:00,52.3,49.8,30.01,WSW,253,7.0,7.0,91,0.00,CLR,,0.04,WeatherDisplay:10.37,2013-02-11 17:15:00,
2013-02-11 12:16:00,52.3,49.8,30.01,WSW,257,10.4,10.4,91,0.00,CLR,,0.04,WeatherDisplay:10.37,2013-02-11 17:16:00,
2013-02-11 12:17:00,52.3,49.8,30.01,West,262,16.0,16.0,91,0.00,CLR,,0.04,WeatherDisplay:10.37,2013-02-11 17:17:00,
2013-02-11 12:19:00,52.3,49.5,30.01,SSW,204,11.5,11.5,90,0.00,CLR,,0.04,WeatherDisplay:10.37,2013-02-11 17:19:00,
2013-02-11 12:21:00,52.4,49.6,30.01,West,267,11.0,11.0,90,0.00,CLR,,0.04,WeatherDisplay:10.37,2013-02-11 17:21:00,
2013-02-11 12:22:00,52.4,49.6,30.01,SW,229,11.5,11.5,90,0.00,CLR,,0.04,WeatherDisplay:10.37,2013-02-11 17:22:00,
2013-02-11 12:24:00,52.4,49.6,30.02,West,259,12.0,12.0,90,0.00,CLR,,0.04,WeatherDisplay:10.37,2013-02-11 17:24:00,
2013-02-11 12:26:00,52.5,49.4,30.01,WSW,257,11.5,11.5,89,0.00,CLR,,0.04,WeatherDisplay:10.37,2013-02-11 17:26:00,
2013-02-11 12:27:00,52.4,49.3,30.01,WSW,239,11.5,11.5,89,0.00,CLR,,0.04,WeatherDisplay:10.37,2013-02-11 17:27:00,
2013-02-11 12:29:00,52.5,49.4,30.01,West,263,8.1,8.1,89,0.00,CLR,,0.04,WeatherDisplay:10.37,2013-02-11 17:29:00,
2013-02-11 12:30:00,52.5,49.4,30.01,West,264,8.1,8.1,89,0.00,CLR,,0.04,WeatherDisplay:10.37,2013-02-11 17:30:00,
2013-02-11 12:31:00,52.4,49.3,30.01,WSW,251,9.2,9.2,89,0.00,CLR,,0.04,WeatherDisplay:10.37,2013-02-11 17:31:00,
2013-02-11 12:32:00,52.4,49.3,30.01,WSW,250,4.6,4.6,89,0.00,CLR,,0.04,WeatherDisplay:10.37,2013-02-11 17:32:00,
2013-02-11 12:34:00,52.5,49.4,30.00,WSW,253,9.0,9.0,89,0.00,CLR,,0.04,WeatherDisplay:10.37,2013-02-11 17:34:00,
2013-02-11 12:35:00,52.5,49.4,30.00,SW,231,17.3,17.3,89,0.00,CLR,,0.04,WeatherDisplay:10.37,2013-02-11 17:35:00,
2013-02-11 12:36:00,52.5,49.4,30.00,West,261,10.0,10.0,89,0.00,CLR,,0.04,WeatherDisplay:10.37,2013-02-11 17:36:00,
2013-02-11 12:37:00,52.6,49.4,30.00,SW,234,16.1,16.1,89,0.00,CLR,,0.04,WeatherDisplay:10.37,2013-02-11 17:37:00,
2013-02-11 12:40:00,52.6,49.4,30.00,WSW,249,13.8,13.8,89,0.00,CLR,,0.04,WeatherDisplay:10.37,2013-02-11 17:40:00,
2013-02-11 12:41:00,52.7,49.2,30.00,WSW,253,13.8,13.8,88,0.00,CLR,,0.04,WeatherDisplay:10.37,2013-02-11 17:41:00,
2013-02-11 12:42:00,52.7,49.2,30.00,WSW,238,8.1,8.1,88,0.00,CLR,,0.04,WeatherDisplay:10.37,2013-02-11 17:42:00,
2013-02-11 12:45:00,52.8,49.6,30.00,West,269,10.4,10.4,89,0.00,CLR,,0.04,WeatherDisplay:10.37,2013-02-11 17:45:00,
2013-02-11 12:46:00,52.8,49.3,29.99,WSW,244,11.5,11.5,88,0.00,CLR,,0.04,WeatherDisplay:10.37,2013-02-11 17:46:00,
2013-02-11 12:47:00,52.9,49.4,29.99,SSW,203,13.0,13.0,88,0.00,CLR,,0.04,WeatherDisplay:10.37,2013-02-11 17:47:00,
2013-02-11 12:50:00,52.9,49.4,29.99,South,173,11.5,11.5,88,0.00,CLR,,0.04,WeatherDisplay:10.37,2013-02-11 17:50:00,
2013-02-11 12:51:00,53.0,49.5,29.99,West,274,10.4,10.4,88,0.00,CLR,,0.04,WeatherDisplay:10.37,2013-02-11 17:51:00,
2013-02-11 12:52:00,53.0,49.5,29.99,SW,235,7.0,7.0,88,0.00,CLR,,0.04,WeatherDisplay:10.37,2013-02-11 17:52:00,
2013-02-11 12:56:00,53.1,49.3,29.99,WSW,241,11.5,11.5,87,0.00,CLR,,0.04,WeatherDisplay:10.37,2013-02-11 17:56:00,
2013-02-11 12:57:00,53.1,49.6,29.99,WSW,241,11.0,11.0,88,0.00,CLR,,0.04,WeatherDisplay:10.37,2013-02-11 17:57:00,
2013-02-11 13:01:00,53.2,49.4,29.98,West,271,11.5,11.5,87,0.00,CLR,,0.04,WeatherDisplay:10.37,2013-02-11 18:01:00,
2013-02-11 13:03:00,53.2,49.1,29.98,West,267,10.4,10.4,86,0.00,,,0.04,WeatherDisplay:10.37,2013-02-11 18:03:00,
2013-02-11 13:06:00,53.3,49.5,29.98,SW,227,8.1,8.1,87,0.00,,,0.04,WeatherDisplay:10.37,2013-02-11 18:06:00,
2013-02-11 13:09:00,53.2,49.1,29.98,WSW,243,9.2,9.2,86,0.00,,,0.04,WeatherDisplay:10.37,2013-02-11 18:09:00,
2013-02-11 13:11:00,53.2,49.4,29.98,SW,232,12.0,12.0,87,0.00,,,0.04,WeatherDisplay:10.37,2013-02-11 18:11:00,
2013-02-11 13:12:00,53.2,49.1,29.98,WSW,241,12.7,12.7,86,0.00,,,0.04,WeatherDisplay:10.37,2013-02-11 18:12:00,
2013-02-11 13:14:00,53.2,49.1,29.98,SW,231,11.5,11.5,86,0.00,,,0.04,WeatherDisplay:10.37,2013-02-11 18:14:00,
2013-02-11 13:16:00,53.3,49.5,29.98,West,279,10.4,10.4,87,0.00,,,0.04,WeatherDisplay:10.37,2013-02-11 18:16:00,
2013-02-11 13:17:00,53.3,49.5,29.98,West,274,10.4,10.4,87,0.00,,,0.04,WeatherDisplay:10.37,2013-02-11 18:17:00,
2013-02-11 13:19:00,53.4,49.6,29.99,WSW,256,17.3,17.3,87,0.00,,,0.04,WeatherDisplay:10.37,2013-02-11 18:19:00,
2013-02-11 13:22:00,53.3,49.2,29.99,West,267,11.5,11.5,86,0.00,,,0.04,WeatherDisplay:10.37,2013-02-11 18:22:00,
2013-02-11 13:24:00,53.3,49.2,29.99,West,272,10.0,10.0,86,0.00,,,0.04,WeatherDisplay:10.37,2013-02-11 18:24:00,
2013-02-11 13:27:00,53.3,49.2,30.00,SW,226,12.7,12.7,86,0.00,,,0.04,WeatherDisplay:10.37,2013-02-11 18:27:00,
2013-02-11 13:29:00,53.2,49.1,30.00,WNW,298,9.2,9.2,86,0.00,,,0.04,WeatherDisplay:10.37,2013-02-11 18:29:00,
2013-02-11 13:30:00,53.2,49.1,30.00,WSW,246,9.2,9.2,86,0.00,,,0.04,WeatherDisplay:10.37,2013-02-11 18:30:00,
2013-02-11 13:32:00,53.2,48.8,30.00,WNW,288,12.7,12.7,85,0.00,,,0.04,WeatherDisplay:10.37,2013-02-11 18:32:00,
2013-02-11 13:34:00,53.2,48.8,30.00,WNW,286,16.1,16.1,85,0.00,,,0.04,WeatherDisplay:10.37,2013-02-11 18:34:00,
2013-02-11 13:35:00,53.2,49.1,30.00,SW,215,16.1,16.1,86,0.00,,,0.04,WeatherDisplay:10.37,2013-02-11 18:35:00,
2013-02-11 13:37:00,53.2,49.1,30.01,WSW,255,11.5,11.5,86,0.00,,,0.04,WeatherDisplay:10.37,2013-02-11 18:37:00,
2013-02-11 13:39:00,53.3,49.2,30.00,SW,226,8.1,8.1,86,0.00,,,0.04,WeatherDisplay:10.37,2013-02-11 18:39:00,
2013-02-11 13:40:00,53.3,49.2,30.00,WSW,240,10.0,10.0,86,0.00,,,0.04,WeatherDisplay:10.37,2013-02-11 18:40:00,
2013-02-11 13:42:00,53.4,49.3,30.00,West,269,10.4,10.4,86,0.00,,,0.04,WeatherDisplay:10.37,2013-02-11 18:42:00,
2013-02-11 13:43:00,53.4,49.3,30.00,SW,229,10.4,10.4,86,0.00,,,0.04,WeatherDisplay:10.37,2013-02-11 18:43:00,
2013-02-11 13:45:00,53.4,49.0,30.00,WNW,287,11.5,11.5,85,0.00,,,0.04,WeatherDisplay:10.37,2013-02-11 18:45:00,
2013-02-11 13:48:00,53.5,49.1,30.00,WSW,249,9.2,9.2,85,0.00,,,0.04,WeatherDisplay:10.37,2013-02-11 18:48:00,
2013-02-11 13:50:00,53.5,49.1,30.00,WSW,241,11.5,11.5,85,0.00,,,0.04,WeatherDisplay:10.37,2013-02-11 18:50:00,
2013-02-11 13:53:00,53.6,49.2,30.01,WSW,253,9.2,9.2,85,0.00,,,0.04,WeatherDisplay:10.37,2013-02-11 18:53:00,
2013-02-11 13:55:00,53.6,48.9,30.00,SW,217,16.1,16.1,84,0.00,,,0.04,WeatherDisplay:10.37,2013-02-11 18:55:00,
2013-02-11 13:58:00,53.6,48.9,30.01,WSW,240,16.1,16.1,84,0.00,,,0.04,WeatherDisplay:10.37,2013-02-11 18:58:00,
2013-02-11 13:59:00,53.6,49.2,30.00,WSW,241,10.4,10.4,85,0.00,,,0.04,WeatherDisplay:10.37,2013-02-11 18:59:00,
2013-02-11 14:00:00,53.6,48.9,30.01,SSW,205,11.5,11.5,84,0.00,,,0.04,WeatherDisplay:10.37,2013-02-11 19:00:00,
2013-02-11 14:03:00,53.6,48.9,30.01,SW,233,12.0,12.0,84,0.00,,,0.04,WeatherDisplay:10.37,2013-02-11 19:03:00,
2013-02-11 14:04:00,53.6,48.6,30.01,WSW,250,10.4,10.4,83,0.00,,,0.04,WeatherDisplay:10.37,2013-02-11 19:04:00,
2013-02-11 14:05:00,53.6,48.9,30.01,West,278,11.5,11.5,84,0.00,,,0.04,WeatherDisplay:10.37,2013-02-11 19:05:00,
2013-02-11 14:09:00,53.5,48.5,30.00,WSW,243,18.4,18.4,83,0.00,,,0.04,WeatherDisplay:10.37,2013-02-11 19:09:00,
2013-02-11 14:10:00,53.5,48.5,30.00,West,261,18.4,18.4,83,0.00,,,0.04,WeatherDisplay:10.37,2013-02-11 19:10:00,
2013-02-11 14:11:00,53.5,48.5,30.00,WSW,251,11.5,11.5,83,0.00,,,0.04,WeatherDisplay:10.37,2013-02-11 19:11:00,
2013-02-11 14:14:00,53.6,48.6,30.00,NW,317,6.9,6.9,83,0.00,,,0.04,WeatherDisplay:10.37,2013-02-11 19:14:00,
2013-02-11 14:15:00,53.5,48.8,30.00,WSW,255,9.2,9.2,84,0.00,,,0.04,WeatherDisplay:10.37,2013-02-11 19:15:00,
2013-02-11 14:16:00,53.6,48.6,30.01,WSW,245,13.8,13.8,83,0.00,,,0.04,WeatherDisplay:10.37,2013-02-11 19:16:00,
2013-02-11 14:19:00,53.6,48.6,30.00,WSW,254,11.5,11.5,83,0.00,,,0.04,WeatherDisplay:10.37,2013-02-11 19:19:00,
2013-02-11 14:20:00,53.6,48.2,30.01,West,262,11.5,11.5,82,0.00,,,0.04,WeatherDisplay:10.37,2013-02-11 19:20:00,
2013-02-11 14:21:00,53.6,48.2,30.00,West,273,10.4,10.4,82,0.00,,,0.04,WeatherDisplay:10.37,2013-02-11 19:21:00,
2013-02-11 14:24:00,53.6,47.9,30.00,SW,234,9.2,9.2,81,0.00,,,0.04,WeatherDisplay:10.37,2013-02-11 19:24:00,
2013-02-11 14:25:00,53.6,48.2,30.00,West,279,15.0,15.0,82,0.00,,,0.04,WeatherDisplay:10.37,2013-02-11 19:25:00,
2013-02-11 14:26:00,53.6,48.2,30.00,West,262,11.5,11.5,82,0.00,,,0.04,WeatherDisplay:10.37,2013-02-11 19:26:00,
2013-02-11 14:29:00,53.7,48.0,30.00,WSW,239,9.2,9.2,81,0.00,,,0.04,WeatherDisplay:10.37,2013-02-11 19:29:00,
2013-02-11 14:30:00,53.7,48.0,30.00,SW,223,9.2,9.2,81,0.00,,,0.04,WeatherDisplay:10.37,2013-02-11 19:30:00,
2013-02-11 14:31:00,53.7,48.3,30.00,WSW,253,9.2,9.2,82,0.00,,,0.04,WeatherDisplay:10.37,2013-02-11 19:31:00,
2013-02-11 14:34:00,53.8,48.1,30.00,WSW,241,13.8,13.8,81,0.00,,,0.04,WeatherDisplay:10.37,2013-02-11 19:34:00,
2013-02-11 14:35:00,53.8,48.1,30.00,WSW,250,9.2,9.2,81,0.00,,,0.04,WeatherDisplay:10.37,2013-02-11 19:35:00,
2013-02-11 14:36:00,53.8,48.1,30.00,SW,216,17.3,17.3,81,0.00,,,0.04,WeatherDisplay:10.37,2013-02-11 19:36:00,
2013-02-11 14:39:00,53.7,48.0,29.99,WSW,246,13.8,13.8,81,0.00,,,0.04,WeatherDisplay:10.37,2013-02-11 19:39:00,
2013-02-11 14:40:00,53.7,47.7,29.99,SW,215,17.3,17.3,80,0.00,,,0.04,WeatherDisplay:10.37,2013-02-11 19:40:00,
2013-02-11 14:41:00,53.7,47.7,29.99,WSW,255,17.3,17.3,80,0.00,,,0.04,WeatherDisplay:10.37,2013-02-11 19:41:00,
2013-02-11 14:42:00,53.7,47.7,29.99,WSW,241,17.3,17.3,80,0.00,,,0.04,WeatherDisplay:10.37,2013-02-11 19:42:00,
2013-02-11 14:44:00,53.7,47.7,29.99,WSW,243,9.2,9.2,80,0.00,,,0.04,WeatherDisplay:10.37,2013-02-11 19:44:00,
2013-02-11 14:46:00,53.8,48.1,29.99,West,276,13.8,13.8,81,0.00,,,0.04,WeatherDisplay:10.37,2013-02-11 19:46:00,
2013-02-11 14:47:00,53.8,47.8,29.98,WSW,241,13.8,13.8,80,0.00,,,0.04,WeatherDisplay:10.37,2013-02-11 19:47:00,
2013-02-11 14:49:00,53.7,47.7,29.98,WSW,240,11.5,11.5,80,0.00,,,0.04,WeatherDisplay:10.37,2013-02-11 19:49:00,
2013-02-11 14:51:00,53.7,47.7,29.98,West,265,12.7,12.7,80,0.00,,,0.04,WeatherDisplay:10.37,2013-02-11 19:51:00,
2013-02-11 14:52:00,53.7,47.7,29.98,WSW,243,10.4,10.4,80,0.00,,,0.04,WeatherDisplay:10.37,2013-02-11 19:52:00,
2013-02-11 14:54:00,53.7,48.0,29.98,NNW,341,8.1,8.1,81,0.00,,,0.04,WeatherDisplay:10.37,2013-02-11 19:54:00,
2013-02-11 14:57:00,53.7,47.7,29.98,WSW,241,9.2,9.2,80,0.00,,,0.04,WeatherDisplay:10.37,2013-02-11 19:57:00,
2013-02-11 15:00:00,53.7,47.7,29.98,WSW,255,7.0,13.0,80,0.00,,,0.04,WeatherDisplay:10.37,2013-02-11 20:00:00,
2013-02-11 15:02:00,53.7,47.0,29.97,WSW,253,11.5,11.5,78,0.00,,,0.04,WeatherDisplay:10.37,2013-02-11 20:02:00,
2013-02-11 15:05:00,53.7,47.7,29.98,WSW,249,11.5,11.5,80,0.00,,,0.04,WeatherDisplay:10.37,2013-02-11 20:05:00,
2013-02-11 15:07:00,53.8,47.4,29.98,WSW,256,9.2,9.2,79,0.00,,,0.04,WeatherDisplay:10.37,2013-02-11 20:07:00,
2013-02-11 15:11:00,53.7,47.0,29.98,SSW,194,12.7,12.7,78,0.00,,,0.04,WeatherDisplay:10.37,2013-02-11 20:11:00,
2013-02-11 15:12:00,53.7,47.0,29.98,WSW,255,12.7,12.7,78,0.00,,,0.04,WeatherDisplay:10.37,2013-02-11 20:12:00,
2013-02-11 15:13:00,53.7,47.0,29.98,WSW,253,9.2,9.2,78,0.00,,,0.04,WeatherDisplay:10.37,2013-02-11 20:13:00,
2013-02-11 15:16:00,53.7,47.3,29.98,WSW,254,12.7,12.7,79,0.00,,,0.04,WeatherDisplay:10.37,2013-02-11 20:16:00,
2013-02-11 15:17:00,53.7,47.0,29.98,West,267,11.5,11.5,78,0.00,,,0.04,WeatherDisplay:10.37,2013-02-11 20:17:00,
2013-02-11 15:18:00,53.7,46.7,29.98,WSW,245,10.4,10.4,77,0.00,,,0.04,WeatherDisplay:10.37,2013-02-11 20:18:00,
2013-02-11 15:21:00,53.6,46.9,29.98,WSW,253,10.4,10.4,78,0.00,,,0.04,WeatherDisplay:10.37,2013-02-11 20:21:00,
2013-02-11 15:22:00,53.6,46.9,29.98,SW,234,11.5,11.5,78,0.00,,,0.04,WeatherDisplay:10.37,2013-02-11 20:22:00,
2013-02-11 15:23:00,53.6,46.9,29.98,West,260,10.4,10.4,78,0.00,,,0.04,WeatherDisplay:10.37,2013-02-11 20:23:00,
2013-02-11 15:26:00,53.6,47.2,29.98,WSW,248,5.8,5.8,79,0.00,,,0.04,WeatherDisplay:10.37,2013-02-11 20:26:00,
2013-02-11 15:27:00,53.6,47.2,29.98,WSW,251,12.7,12.7,79,0.00,,,0.04,WeatherDisplay:10.37,2013-02-11 20:27:00,
2013-02-11 15:28:00,53.6,47.2,29.98,SW,234,12.7,12.7,79,0.00,,,0.04,WeatherDisplay:10.37,2013-02-11 20:28:00,
2013-02-11 15:31:00,53.6,47.2,29.99,WSW,249,11.5,11.5,79,0.00,,,0.04,WeatherDisplay:10.37,2013-02-11 20:31:00,
2013-02-11 15:32:00,53.6,47.6,29.99,SW,219,8.1,8.1,80,0.00,,,0.04,WeatherDisplay:10.37,2013-02-11 20:32:00,
2013-02-11 15:33:00,53.7,47.7,29.99,WSW,240,6.0,6.0,80,0.00,,,0.04,WeatherDisplay:10.37,2013-02-11 20:33:00,
2013-02-11 15:34:00,53.7,47.3,29.99,WSW,238,7.0,7.0,79,0.00,,,0.04,WeatherDisplay:10.37,2013-02-11 20:34:00,
2013-02-11 15:36:00,53.7,47.7,30.00,SW,234,10.4,10.4,80,0.00,,,0.04,WeatherDisplay:10.37,2013-02-11 20:36:00,
2013-02-11 15:37:00,53.7,47.3,30.00,WSW,237,8.0,8.0,79,0.00,,,0.04,WeatherDisplay:10.37,2013-02-11 20:37:00,
2013-02-11 15:38:00,53.7,47.3,30.00,West,273,12.7,12.7,79,0.00,,,0.04,WeatherDisplay:10.37,2013-02-11 20:38:00,
2013-02-11 15:39:00,53.7,47.0,30.00,West,260,12.7,12.7,78,0.00,,,0.04,WeatherDisplay:10.37,2013-02-11 20:39:00,
2013-02-11 15:42:00,53.7,47.3,29.99,WSW,253,5.8,5.8,79,0.00,,,0.04,WeatherDisplay:10.37,2013-02-11 20:42:00,
2013-02-11 15:43:00,53.7,47.0,29.99,West,273,11.5,11.5,78,0.00,,,0.04,WeatherDisplay:10.37,2013-02-11 20:43:00,
2013-02-11 15:44:00,53.7,47.0,29.99,WSW,255,11.5,11.5,78,0.00,,,0.04,WeatherDisplay:10.37,2013-02-11 20:44:00,
2013-02-11 15:47:00,53.7,46.7,29.99,West,266,15.0,15.0,77,0.00,,,0.04,WeatherDisplay:10.37,2013-02-11 20:47:00,
2013-02-11 15:48:00,53.7,46.7,29.99,SW,233,15.0,15.0,77,0.00,,,0.04,WeatherDisplay:10.37,2013-02-11 20:48:00,
2013-02-11 15:49:00,53.7,46.7,29.99,WSW,250,11.0,11.0,77,0.00,,,0.04,WeatherDisplay:10.37,2013-02-11 20:49:00,
2013-02-11 15:52:00,53.6,46.6,29.99,SW,229,11.5,11.5,77,0.00,,,0.04,WeatherDisplay:10.37,2013-02-11 20:52:00,
2013-02-11 15:53:00,53.7,46.7,29.99,WSW,253,11.5,11.5,77,0.00,,,0.04,WeatherDisplay:10.37,2013-02-11 20:53:00,
2013-02-11 15:54:00,53.6,46.6,29.99,WSW,251,13.8,13.8,77,0.00,,,0.04,WeatherDisplay:10.37,2013-02-11 20:54:00,
2013-02-11 15:58:00,53.6,46.6,30.00,WSW,251,11.5,11.5,77,0.00,,,0.04,WeatherDisplay:10.37,2013-02-11 20:58:00,
2013-02-11 15:59:00,53.6,46.9,30.00,WSW,239,8.1,8.1,78,0.00,,,0.04,WeatherDisplay:10.37,2013-02-11 20:59:00,
2013-02-11 16:03:00,53.6,46.6,29.99,WSW,255,11.5,11.5,77,0.00,,,0.04,WeatherDisplay:10.37,2013-02-11 21:03:00,
2013-02-11 16:04:00,53.6,46.6,30.00,SW,234,9.2,9.2,77,0.00,,,0.04,WeatherDisplay:10.37,2013-02-11 21:04:00,
2013-02-11 16:08:00,53.5,46.1,29.99,WSW,255,9.2,9.2,76,0.00,,,0.04,WeatherDisplay:10.37,2013-02-11 21:08:00,
2013-02-11 16:09:00,53.5,46.1,29.99,WSW,245,8.1,8.1,76,0.00,,,0.04,WeatherDisplay:10.37,2013-02-11 21:09:00,
2013-02-11 16:13:00,53.4,46.0,29.99,WSW,255,12.7,12.7,76,0.00,,,0.04,WeatherDisplay:10.37,2013-02-11 21:13:00,
2013-02-11 16:14:00,53.4,45.7,30.00,WNW,299,12.7,12.7,75,0.00,,,0.04,WeatherDisplay:10.37,2013-02-11 21:14:00,
2013-02-11 16:15:00,53.3,45.9,30.00,WSW,253,6.0,6.0,76,0.00,,,0.04,WeatherDisplay:10.37,2013-02-11 21:15:00,
2013-02-11 16:18:00,53.2,45.1,30.00,WSW,251,17.3,17.3,74,0.00,,,0.04,WeatherDisplay:10.37,2013-02-11 21:18:00,
2013-02-11 16:19:00,53.2,45.5,30.00,SW,214,11.5,11.5,75,0.00,,,0.04,WeatherDisplay:10.37,2013-02-11 21:19:00,
2013-02-11 16:20:00,53.2,45.5,30.00,West,259,11.5,11.5,75,0.00,,,0.04,WeatherDisplay:10.37,2013-02-11 21:20:00,
2013-02-11 16:23:00,53.1,45.4,30.00,SW,219,6.9,6.9,75,0.00,,,0.04,WeatherDisplay:10.37,2013-02-11 21:23:00,
2013-02-11 16:24:00,53.1,45.4,30.00,WSW,253,10.4,10.4,75,0.00,,,0.04,WeatherDisplay:10.37,2013-02-11 21:24:00,
2013-02-11 16:25:00,53.1,45.7,29.99,NW,312,5.8,5.8,76,0.00,,,0.04,WeatherDisplay:10.37,2013-02-11 21:25:00,
2013-02-11 16:29:00,53.1,45.0,29.99,SW,229,12.7,12.7,74,0.00,,,0.04,WeatherDisplay:10.37,2013-02-11 21:29:00,
2013-02-11 16:30:00,53.0,44.6,29.99,West,264,12.7,12.7,73,0.00,,,0.04,WeatherDisplay:10.37,2013-02-11 21:30:00,
2013-02-11 16:34:00,53.0,43.8,29.99,WSW,241,11.5,11.5,71,0.00,,,0.04,WeatherDisplay:10.37,2013-02-11 21:34:00,
2013-02-11 16:35:00,52.9,44.1,29.99,WSW,253,11.5,11.5,72,0.00,,,0.04,WeatherDisplay:10.37,2013-02-11 21:35:00,
2013-02-11 16:39:00,52.8,43.7,29.99,WSW,248,9.2,9.2,71,0.00,,,0.04,WeatherDisplay:10.37,2013-02-11 21:39:00,
2013-02-11 16:40:00,52.8,43.7,29.99,WSW,237,14.0,14.0,71,0.00,,,0.04,WeatherDisplay:10.37,2013-02-11 21:40:00,
2013-02-11 16:44:00,52.6,43.5,29.99,SW,234,9.2,9.2,71,0.00,,,0.04,WeatherDisplay:10.37,2013-02-11 21:44:00,
2013-02-11 16:45:00,52.6,43.5,29.99,WSW,254,6.9,6.9,71,0.00,,,0.04,WeatherDisplay:10.37,2013-02-11 21:45:00,
2013-02-11 16:49:00,52.4,43.3,30.00,SW,222,10.4,10.4,71,0.00,,,0.04,WeatherDisplay:10.37,2013-02-11 21:49:00,
2013-02-11 16:50:00,52.4,43.3,30.00,WSW,255,9.0,9.0,71,0.00,,,0.04,WeatherDisplay:10.37,2013-02-11 21:50:00,
2013-02-11 16:54:00,52.2,43.1,30.00,SW,232,11.5,11.5,71,0.00,,,0.04,WeatherDisplay:10.37,2013-02-11 21:54:00,
2013-02-11 16:55:00,52.2,43.4,29.99,West,261,6.9,6.9,72,0.00,,,0.04,WeatherDisplay:10.37,2013-02-11 21:55:00,
2013-02-11 17:00:00,52.2,42.7,29.99,NW,316,10.4,10.4,70,0.00,,,0.04,WeatherDisplay:10.37,2013-02-11 22:00:00,
2013-02-11 17:01:00,52.2,42.7,29.99,SW,228,10.4,10.4,70,0.00,,,0.04,WeatherDisplay:10.37,2013-02-11 22:01:00,
2013-02-11 17:06:00,52.1,42.6,29.99,West,264,11.5,11.5,70,0.00,,,0.04,WeatherDisplay:10.37,2013-02-11 22:06:00,
2013-02-11 17:07:00,52.1,42.6,29.99,West,264,15.0,15.0,70,0.00,,,0.04,WeatherDisplay:10.37,2013-02-11 22:07:00,
2013-02-11 17:11:00,52.1,42.6,30.00,WSW,241,19.6,19.6,70,0.00,,,0.04,WeatherDisplay:10.37,2013-02-11 22:11:00,
2013-02-11 17:12:00,52.1,42.6,30.00,WSW,244,19.6,19.6,70,0.00,,,0.04,WeatherDisplay:10.37,2013-02-11 22:12:00,
2013-02-11 17:16:00,51.9,42.8,30.00,SW,226,12.0,12.0,71,0.00,,,0.04,WeatherDisplay:10.37,2013-02-11 22:16:00,
2013-02-11 17:17:00,51.8,42.3,30.00,WSW,238,13.8,13.8,70,0.00,,,0.04,WeatherDisplay:10.37,2013-02-11 22:17:00,
2013-02-11 17:22:00,51.8,42.7,30.00,West,260,11.5,11.5,71,0.00,,,0.04,WeatherDisplay:10.37,2013-02-11 22:22:00,
2013-02-11 17:27:00,51.7,43.0,30.00,West,267,11.5,11.5,72,0.00,,,0.04,WeatherDisplay:10.37,2013-02-11 22:27:00,
2013-02-11 17:28:00,51.6,42.9,30.00,SW,236,11.5,11.5,72,0.00,,,0.04,WeatherDisplay:10.37,2013-02-11 22:28:00,
2013-02-11 17:32:00,51.5,42.8,30.00,WSW,253,9.2,9.2,72,0.00,,,0.04,WeatherDisplay:10.37,2013-02-11 22:32:00,
2013-02-11 17:33:00,51.5,42.8,30.00,WSW,254,9.2,9.2,72,0.00,,,0.04,WeatherDisplay:10.37,2013-02-11 22:33:00,
2013-02-11 17:37:00,51.3,42.6,30.00,SW,234,11.5,11.5,72,0.00,,,0.04,WeatherDisplay:10.37,2013-02-11 22:37:00,
2013-02-11 17:38:00,51.3,42.6,30.00,WSW,248,11.5,11.5,72,0.00,,,0.04,WeatherDisplay:10.37,2013-02-11 22:38:00,
2013-02-11 17:39:00,51.3,42.2,30.00,WSW,254,14.0,14.0,71,0.00,,,0.04,WeatherDisplay:10.37,2013-02-11 22:39:00,
2013-02-11 17:42:00,51.2,42.1,30.00,West,265,11.5,11.5,71,0.00,,,0.04,WeatherDisplay:10.37,2013-02-11 22:42:00,
2013-02-11 17:43:00,51.2,42.1,30.00,West,261,11.5,11.5,71,0.00,,,0.04,WeatherDisplay:10.37,2013-02-11 22:43:00,
2013-02-11 17:44:00,51.2,42.1,30.00,West,261,11.5,11.5,71,0.00,,,0.04,WeatherDisplay:10.37,2013-02-11 22:44:00,
2013-02-11 17:48:00,51.0,41.9,30.00,WSW,241,9.2,9.2,71,0.00,,,0.04,WeatherDisplay:10.37,2013-02-11 22:48:00,
2013-02-11 17:49:00,51.0,42.3,30.00,WSW,257,11.5,11.5,72,0.00,,,0.04,WeatherDisplay:10.37,2013-02-11 22:49:00,
2013-02-11 17:53:00,50.9,41.8,30.00,WSW,241,10.4,10.4,71,0.00,,,0.04,WeatherDisplay:10.37,2013-02-11 22:53:00,
2013-02-11 17:54:00,50.8,41.7,30.00,SW,234,11.5,11.5,71,0.00,,,0.04,WeatherDisplay:10.37,2013-02-11 22:54:00,
2013-02-11 17:55:00,50.8,41.7,30.00,WSW,257,15.0,15.0,71,0.00,,,0.04,WeatherDisplay:10.37,2013-02-11 22:55:00,
2013-02-11 17:58:00,50.7,41.6,30.00,SW,224,8.1,8.1,71,0.00,,,0.04,WeatherDisplay:10.37,2013-02-11 22:58:00,
2013-02-11 17:59:00,50.6,41.5,30.00,West,266,11.5,11.5,71,0.00,,,0.04,WeatherDisplay:10.37,2013-02-11 22:59:00,
2013-02-11 18:00:00,50.6,41.5,30.00,WSW,238,11.5,11.5,71,0.00,,,0.04,WeatherDisplay:10.37,2013-02-11 23:00:00,
2013-02-11 18:01:00,50.6,41.5,30.00,SW,229,6.9,6.9,71,0.00,,,0.04,WeatherDisplay:10.37,2013-02-11 23:01:00,
2013-02-11 18:03:00,50.5,41.4,30.00,SW,224,6.9,6.9,71,0.00,,,0.04,WeatherDisplay:10.37,2013-02-11 23:03:00,
2013-02-11 18:04:00,50.5,41.4,30.00,SW,229,11.0,11.0,71,0.00,,,0.04,WeatherDisplay:10.37,2013-02-11 23:04:00,
2013-02-11 18:06:00,50.4,41.3,30.00,WSW,248,11.5,11.5,71,0.00,,,0.04,WeatherDisplay:10.37,2013-02-11 23:06:00,
2013-02-11 18:08:00,50.4,41.3,30.00,WSW,256,11.5,11.5,71,0.00,,,0.04,WeatherDisplay:10.37,2013-02-11 23:08:00,
2013-02-11 18:10:00,50.3,41.3,30.00,SW,232,13.8,13.8,71,0.00,,,0.04,WeatherDisplay:10.37,2013-02-11 23:10:00,
2013-02-11 18:11:00,50.3,41.3,30.00,WSW,249,10.4,10.4,71,0.00,,,0.04,WeatherDisplay:10.37,2013-02-11 23:11:00,
2013-02-11 18:13:00,50.2,41.2,30.00,West,262,11.5,11.5,71,0.00,,,0.04,WeatherDisplay:10.37,2013-02-11 23:13:00,
2013-02-11 18:16:00,50.1,41.1,30.00,SW,224,10.4,10.4,71,0.00,,,0.04,WeatherDisplay:10.37,2013-02-11 23:16:00,
2013-02-11 18:17:00,50.1,41.1,30.00,WSW,252,8.1,8.1,71,0.00,,,0.04,WeatherDisplay:10.37,2013-02-11 23:17:00,
2013-02-11 18:18:00,50.1,41.4,30.00,WSW,255,11.5,11.5,72,0.00,,,0.04,WeatherDisplay:10.37,2013-02-11 23:18:00,
2013-02-11 18:21:00,50.0,41.3,30.00,WSW,257,12.0,12.0,72,0.00,,,0.04,WeatherDisplay:10.37,2013-02-11 23:21:00,
2013-02-11 18:22:00,50.0,41.3,30.00,WSW,255,13.8,13.8,72,0.00,,,0.04,WeatherDisplay:10.37,2013-02-11 23:22:00,
2013-02-11 18:23:00,50.0,41.0,30.00,WSW,244,11.5,11.5,71,0.00,,,0.04,WeatherDisplay:10.37,2013-02-11 23:23:00,
2013-02-11 18:26:00,49.9,40.9,30.00,WSW,256,11.5,11.5,71,0.00,,,0.04,WeatherDisplay:10.37,2013-02-11 23:26:00,
2013-02-11 18:27:00,49.8,40.8,30.00,WSW,238,11.5,11.5,71,0.00,,,0.04,WeatherDisplay:10.37,2013-02-11 23:27:00,
2013-02-11 18:29:00,49.7,41.0,30.00,West,262,7.0,7.0,72,0.00,,,0.04,WeatherDisplay:10.37,2013-02-11 23:29:00,
2013-02-11 18:31:00,49.7,40.7,30.00,West,267,11.5,11.5,71,0.00,,,0.04,WeatherDisplay:10.37,2013-02-11 23:31:00,
2013-02-11 18:32:00,49.7,40.7,30.00,WSW,239,11.5,11.5,71,0.00,,,0.04,WeatherDisplay:10.37,2013-02-11 23:32:00,
2013-02-11 18:34:00,49.7,40.7,30.00,WSW,238,9.2,9.2,71,0.00,,,0.04,WeatherDisplay:10.37,2013-02-11 23:34:00,
2013-02-11 18:36:00,49.6,40.9,30.00,WSW,239,8.1,8.1,72,0.00,,,0.04,WeatherDisplay:10.37,2013-02-11 23:36:00,
2013-02-11 18:37:00,49.6,40.6,30.00,WSW,248,11.5,11.5,71,0.00,,,0.04,WeatherDisplay:10.37,2013-02-11 23:37:00,
2013-02-11 18:38:00,49.5,40.8,30.00,SW,234,11.5,11.5,72,0.00,,,0.04,WeatherDisplay:10.37,2013-02-11 23:38:00,
2013-02-11 18:39:00,49.5,40.8,30.00,WSW,254,11.5,11.5,72,0.00,,,0.04,WeatherDisplay:10.37,2013-02-11 23:39:00,
2013-02-11 18:41:00,49.5,40.5,30.01,West,260,12.7,12.7,71,0.00,,,0.04,WeatherDisplay:10.37,2013-02-11 23:41:00,
2013-02-11 18:43:00,49.4,40.7,30.00,WSW,246,8.1,8.1,72,0.00,,,0.04,WeatherDisplay:10.37,2013-02-11 23:43:00,
2013-02-11 18:44:00,49.4,40.7,30.00,West,259,11.5,11.5,72,0.00,,,0.04,WeatherDisplay:10.37,2013-02-11 23:44:00,
2013-02-11 18:46:00,49.4,40.7,30.00,SW,234,10.4,10.4,72,0.00,,,0.04,WeatherDisplay:10.37,2013-02-11 23:46:00,
2013-02-11 18:49:00,49.3,40.7,30.00,WSW,244,9.0,9.0,72,0.00,,,0.04,WeatherDisplay:10.37,2013-02-11 23:49:00,
2013-02-11 18:52:00,49.2,40.6,30.01,WSW,251,9.2,9.2,72,0.00,,,0.04,WeatherDisplay:10.37,2013-02-11 23:52:00,
2013-02-11 18:54:00,49.2,40.6,30.01,SW,232,14.0,14.0,72,0.00,,,0.04,WeatherDisplay:10.37,2013-02-11 23:54:00,
2013-02-11 18:55:00,49.1,40.5,30.01,WSW,254,12.7,12.7,72,0.00,,,0.04,WeatherDisplay:10.37,2013-02-11 23:55:00,
2013-02-11 18:57:00,49.1,40.5,30.01,SW,222,12.7,12.7,72,0.00,,,0.04,WeatherDisplay:10.37,2013-02-11 23:57:00,
2013-02-11 19:00:00,49.1,40.5,30.01,SW,224,10.4,10.4,72,0.00,,,0.04,WeatherDisplay:10.37,2013-02-12 00:00:00,
2013-02-11 19:03:00,49.0,40.7,30.02,SSW,203,8.1,8.1,73,0.00,,,0.04,WeatherDisplay:10.37,2013-02-12 00:03:00,
2013-02-11 19:05:00,49.0,40.4,30.02,WSW,243,15.0,15.0,72,0.00,,,0.04,WeatherDisplay:10.37,2013-02-12 00:05:00,
2013-02-11 19:08:00,49.1,40.8,30.02,WSW,245,11.5,11.5,73,0.00,,,0.04,WeatherDisplay:10.37,2013-02-12 00:08:00,
2013-02-11 19:10:00,49.1,40.8,30.02,SSW,203,11.5,11.5,73,0.00,,,0.04,WeatherDisplay:10.37,2013-02-12 00:10:00,
2013-02-11 19:11:00,49.1,40.8,30.02,West,271,11.5,11.5,73,0.00,,,0.04,WeatherDisplay:10.37,2013-02-12 00:11:00,
2013-02-11 19:13:00,49.0,40.7,30.02,WSW,241,6.9,6.9,73,0.00,,,0.04,WeatherDisplay:10.37,2013-02-12 00:13:00,
2013-02-11 19:15:00,48.9,41.0,30.02,WSW,245,9.2,9.2,74,0.00,,,0.04,WeatherDisplay:10.37,2013-02-12 00:15:00,
2013-02-11 19:16:00,48.9,41.0,30.02,West,259,10.4,10.4,74,0.00,,,0.04,WeatherDisplay:10.37,2013-02-12 00:16:00,
2013-02-11 19:18:00,48.9,41.0,30.02,SW,229,6.0,6.0,74,0.00,,,0.04,WeatherDisplay:10.37,2013-02-12 00:18:00,
2013-02-11 19:20:00,48.9,41.0,30.01,SW,235,11.5,11.5,74,0.00,,,0.04,WeatherDisplay:10.37,2013-02-12 00:20:00,
2013-02-11 19:21:00,48.9,41.0,30.01,WNW,300,11.5,11.5,74,0.00,,,0.04,WeatherDisplay:10.37,2013-02-12 00:21:00,
2013-02-11 19:23:00,48.8,41.2,30.02,West,264,10.4,10.4,75,0.00,,,0.04,WeatherDisplay:10.37,2013-02-12 00:23:00,
2013-02-11 19:26:00,48.8,41.2,30.02,WSW,244,12.7,12.7,75,0.00,,,0.04,WeatherDisplay:10.37,2013-02-12 00:26:00,
2013-02-11 19:28:00,48.8,41.2,30.02,WSW,241,8.1,8.1,75,0.00,,,0.04,WeatherDisplay:10.37,2013-02-12 00:28:00,
2013-02-11 19:31:00,48.7,41.5,30.02,West,260,5.8,5.8,76,0.00,,,0.04,WeatherDisplay:10.37,2013-02-12 00:31:00,
2013-02-11 19:32:00,48.7,41.5,30.02,WSW,245,5.8,5.8,76,0.00,,,0.04,WeatherDisplay:10.37,2013-02-12 00:32:00,
2013-02-11 19:33:00,48.7,41.5,30.02,WSW,243,11.0,11.0,76,0.00,,,0.04,WeatherDisplay:10.37,2013-02-12 00:33:00,
2013-02-11 19:36:00,48.6,41.4,30.02,WSW,243,9.2,9.2,76,0.00,,,0.04,WeatherDisplay:10.37,2013-02-12 00:36:00,
2013-02-11 19:37:00,48.6,41.4,30.02,WSW,239,13.8,13.8,76,0.00,,,0.04,WeatherDisplay:10.37,2013-02-12 00:37:00,
2013-02-11 19:38:00,48.6,41.4,30.02,WSW,250,9.2,9.2,76,0.00,,,0.04,WeatherDisplay:10.37,2013-02-12 00:38:00,
2013-02-11 19:41:00,48.5,41.3,30.03,WSW,245,9.2,9.2,76,0.00,,,0.04,WeatherDisplay:10.37,2013-02-12 00:41:00,
2013-02-11 19:42:00,48.5,41.3,30.02,WSW,253,6.9,6.9,76,0.00,,,0.04,WeatherDisplay:10.37,2013-02-12 00:42:00,
2013-02-11 19:44:00,48.5,40.9,30.03,WSW,237,9.2,9.2,75,0.00,,,0.04,WeatherDisplay:10.37,2013-02-12 00:44:00,
2013-02-11 19:47:00,48.5,40.9,30.03,WSW,237,12.0,12.0,75,0.00,,,0.04,WeatherDisplay:10.37,2013-02-12 00:47:00,
2013-02-11 19:49:00,48.5,40.6,30.03,WSW,253,18.4,18.4,74,0.00,,,0.04,WeatherDisplay:10.37,2013-02-12 00:49:00,
2013-02-11 19:52:00,48.5,40.6,30.03,WSW,251,11.5,11.5,74,0.00,,,0.04,WeatherDisplay:10.37,2013-02-12 00:52:00,
2013-02-11 19:54:00,48.6,40.7,30.03,WSW,254,9.2,9.2,74,0.00,,,0.04,WeatherDisplay:10.37,2013-02-12 00:54:00,
2013-02-11 19:57:00,48.5,40.6,30.03,WSW,238,6.9,6.9,74,0.00,,,0.04,WeatherDisplay:10.37,2013-02-12 00:57:00,
2013-02-11 19:59:00,48.4,40.5,30.03,WSW,248,4.6,4.6,74,0.00,,,0.04,WeatherDisplay:10.37,2013-02-12 00:59:00,
2013-02-11 20:02:00,48.3,40.4,30.03,West,266,9.2,9.2,74,0.00,,,0.04,WeatherDisplay:10.37,2013-02-12 01:02:00,
2013-02-11 20:04:00,48.2,40.3,30.03,SW,232,9.2,9.2,74,0.00,,,0.04,WeatherDisplay:10.37,2013-02-12 01:04:00,
2013-02-11 20:07:00,48.2,40.6,30.04,WSW,248,7.0,7.0,75,0.00,,,0.04,WeatherDisplay:10.37,2013-02-12 01:07:00,
2013-02-11 20:10:00,48.2,40.6,30.04,WNW,290,10.4,10.4,75,0.00,,,0.04,WeatherDisplay:10.37,2013-02-12 01:10:00,
2013-02-11 20:12:00,48.1,40.5,30.04,West,259,11.5,11.5,75,0.00,,,0.04,WeatherDisplay:10.37,2013-02-12 01:12:00,
2013-02-11 20:15:00,48.0,40.5,30.04,WNW,287,9.2,9.2,75,0.00,,,0.04,WeatherDisplay:10.37,2013-02-12 01:15:00,
2013-02-11 20:17:00,48.0,40.5,30.03,West,281,10.4,10.4,75,0.00,,,0.04,WeatherDisplay:10.37,2013-02-12 01:17:00,
2013-02-11 20:18:00,48.0,40.5,30.03,WSW,254,11.5,11.5,75,0.00,,,0.04,WeatherDisplay:10.37,2013-02-12 01:18:00,
2013-02-11 20:20:00,48.0,40.5,30.04,SW,214,11.5,11.5,75,0.00,,,0.04,WeatherDisplay:10.37,2013-02-12 01:20:00,
2013-02-11 20:22:00,47.9,40.0,30.04,WSW,238,10.4,10.4,74,0.00,,,0.04,WeatherDisplay:10.37,2013-02-12 01:22:00,
2013-02-11 20:23:00,47.9,40.0,30.04,West,265,11.5,11.5,74,0.00,,,0.04,WeatherDisplay:10.37,2013-02-12 01:23:00,
2013-02-11 20:25:00,47.9,40.0,30.04,WSW,245,6.9,6.9,74,0.00,,,0.04,WeatherDisplay:10.37,2013-02-12 01:25:00,
2013-02-11 20:28:00,47.8,39.9,30.04,WSW,238,11.5,11.5,74,0.00,,,0.04,WeatherDisplay:10.37,2013-02-12 01:28:00,
2013-02-11 20:31:00,47.7,39.5,30.04,West,260,8.1,8.1,73,0.00,,,0.04,WeatherDisplay:10.37,2013-02-12 01:31:00,
2013-02-11 20:33:00,47.7,39.5,30.04,WSW,249,5.8,5.8,73,0.00,,,0.04,WeatherDisplay:10.37,2013-02-12 01:33:00,
2013-02-11 20:36:00,47.7,39.1,30.04,WSW,253,11.5,11.5,72,0.00,,,0.04,WeatherDisplay:10.37,2013-02-12 01:36:00,
2013-02-11 20:38:00,47.7,39.1,30.04,WSW,240,9.0,9.0,72,0.00,,,0.04,WeatherDisplay:10.37,2013-02-12 01:38:00,
2013-02-11 20:41:00,47.6,39.0,30.04,WSW,255,11.0,11.0,72,0.00,,,0.04,WeatherDisplay:10.37,2013-02-12 01:41:00,
2013-02-11 20:43:00,47.6,39.0,30.04,WSW,250,8.1,8.1,72,0.00,,,0.04,WeatherDisplay:10.37,2013-02-12 01:43:00,
2013-02-11 20:46:00,47.4,38.8,30.04,WSW,244,6.9,6.9,72,0.00,,,0.04,WeatherDisplay:10.37,2013-02-12 01:46:00,
2013-02-11 20:48:00,47.3,38.4,30.04,WSW,241,6.9,6.9,71,0.00,,,0.04,WeatherDisplay:10.37,2013-02-12 01:48:00,
2013-02-11 20:52:00,47.2,38.3,30.04,West,264,12.0,12.0,71,0.00,,,0.04,WeatherDisplay:10.37,2013-02-12 01:52:00,
2013-02-11 20:53:00,47.3,38.0,30.04,SW,232,15.0,15.0,70,0.00,,,0.04,WeatherDisplay:10.37,2013-02-12 01:53:00,
2013-02-11 20:54:00,47.3,38.0,30.04,WSW,254,11.5,11.5,70,0.00,,,0.04,WeatherDisplay:10.37,2013-02-12 01:54:00,
2013-02-11 20:57:00,47.3,38.0,30.04,West,262,11.5,11.5,70,0.00,,,0.04,WeatherDisplay:10.37,2013-02-12 01:57:00,
2013-02-11 20:58:00,47.2,37.9,30.04,WSW,253,8.1,8.1,70,0.00,,,0.04,WeatherDisplay:10.37,2013-02-12 01:58:00,
2013-02-11 20:59:00,47.2,37.5,30.04,WSW,255,12.7,12.7,69,0.00,,,0.04,WeatherDisplay:10.37,2013-02-12 01:59:00,
2013-02-11 21:02:00,47.2,37.9,30.04,WSW,238,11.5,11.5,70,0.00,,,0.04,WeatherDisplay:10.37,2013-02-12 02:02:00,
2013-02-11 21:04:00,47.2,37.5,30.04,West,262,12.7,12.7,69,0.00,CLR,,0.04,WeatherDisplay:10.37,2013-02-12 02:04:00,
2013-02-11 21:08:00,47.1,37.1,30.04,West,272,6.9,6.9,68,0.00,CLR,,0.04,WeatherDisplay:10.37,2013-02-12 02:08:00,
2013-02-11 21:09:00,47.1,37.4,30.03,West,267,10.4,10.4,69,0.00,CLR,,0.04,WeatherDisplay:10.37,2013-02-12 02:09:00,
2013-02-11 21:13:00,47.0,37.0,30.03,West,260,11.5,11.5,68,0.00,CLR,,0.04,WeatherDisplay:10.37,2013-02-12 02:13:00,
2013-02-11 21:14:00,47.0,37.0,30.04,WSW,243,11.5,11.5,68,0.00,CLR,,0.04,WeatherDisplay:10.37,2013-02-12 02:14:00,
2013-02-11 21:18:00,47.0,36.6,30.04,WSW,241,9.2,9.2,67,0.00,CLR,,0.04,WeatherDisplay:10.37,2013-02-12 02:18:00,
2013-02-11 21:19:00,46.9,36.9,30.04,SW,229,5.8,5.8,68,0.00,CLR,,0.04,WeatherDisplay:10.37,2013-02-12 02:19:00,
2013-02-11 21:23:00,46.8,36.4,30.04,WSW,242,6.0,6.0,67,0.00,CLR,,0.04,WeatherDisplay:10.37,2013-02-12 02:23:00,
2013-02-11 21:24:00,46.7,36.3,30.04,WSW,253,6.9,6.9,67,0.00,CLR,,0.04,WeatherDisplay:10.37,2013-02-12 02:24:00,
2013-02-11 21:25:00,46.7,36.3,30.04,WSW,249,3.0,8.0,67,0.00,CLR,,0.04,WeatherDisplay:10.37,2013-02-12 02:25:00,
2013-02-11 21:28:00,46.7,36.3,30.04,WSW,258,5.8,5.8,67,0.00,CLR,,0.04,WeatherDisplay:10.37,2013-02-12 02:28:00,
2013-02-11 21:29:00,46.6,36.2,30.04,WSW,241,8.1,8.1,67,0.00,CLR,,0.04,WeatherDisplay:10.37,2013-02-12 02:29:00,
2013-02-11 21:30:00,46.6,36.3,30.04,WSW,253,3.0,10.0,67,0.00,CLR,,0.04,WeatherDisplay:10.37,2013-02-12 02:30:00,
2013-02-11 21:33:00,46.5,36.1,30.04,SW,215,11.5,11.5,67,0.00,CLR,,0.04,WeatherDisplay:10.37,2013-02-12 02:33:00,
2013-02-11 21:34:00,46.5,35.7,30.04,WSW,245,11.5,11.5,66,0.00,CLR,,0.04,WeatherDisplay:10.37,2013-02-12 02:34:00,
2013-02-11 21:35:00,46.5,35.7,30.04,WSW,249,5.0,12.0,66,0.00,CLR,,0.04,WeatherDisplay:10.37,2013-02-12 02:35:00,
2013-02-11 21:38:00,46.5,35.7,30.04,WSW,253,15.0,15.0,66,0.00,CLR,,0.04,WeatherDisplay:10.37,2013-02-12 02:38:00,
2013-02-11 21:40:00,46.4,35.7,30.04,SSE,155,10.4,10.4,66,0.00,CLR,,0.04,WeatherDisplay:10.37,2013-02-12 02:40:00,
2013-02-11 21:43:00,46.4,35.7,30.04,WSW,245,10.4,10.4,66,0.00,CLR,,0.04,WeatherDisplay:10.37,2013-02-12 02:43:00,
2013-02-11 21:45:00,46.4,35.7,30.04,SW,232,9.2,9.2,66,0.00,CLR,,0.04,WeatherDisplay:10.37,2013-02-12 02:45:00,
2013-02-11 21:48:00,46.4,35.7,30.04,WNW,290,8.1,8.1,66,0.00,CLR,,0.04,WeatherDisplay:10.37,2013-02-12 02:48:00,
2013-02-11 21:50:00,46.4,35.7,30.05,NW,321,13.8,13.8,66,0.00,CLR,,0.04,WeatherDisplay:10.37,2013-02-12 02:50:00,
2013-02-11 21:51:00,46.4,35.7,30.05,SSW,208,13.8,13.8,66,0.00,CLR,,0.04,WeatherDisplay:10.37,2013-02-12 02:51:00,
2013-02-11 21:54:00,46.3,35.2,30.05,WSW,244,6.9,6.9,65,0.00,CLR,,0.04,WeatherDisplay:10.37,2013-02-12 02:54:00,
2013-02-11 21:55:00,46.3,35.2,30.04,West,262,5.0,5.0,65,0.00,CLR,,0.04,WeatherDisplay:10.37,2013-02-12 02:55:00,
2013-02-11 21:56:00,46.2,35.5,30.05,SSW,210,11.0,11.0,66,0.00,CLR,,0.04,WeatherDisplay:10.37,2013-02-12 02:56:00,
2013-02-11 21:59:00,46.2,35.1,30.05,West,265,5.8,5.8,65,0.00,CLR,,0.04,WeatherDisplay:10.37,2013-02-12 02:59:00,
2013-02-11 22:00:00,46.2,35.1,30.05,West,259,8.1,8.1,65,0.00,CLR,,0.04,WeatherDisplay:10.37,2013-02-12 03:00:00,
2013-02-11 22:01:00,46.1,35.0,30.05,WSW,249,9.0,9.0,65,0.00,CLR,,0.04,WeatherDisplay:10.37,2013-02-12 03:01:00,
2013-02-11 22:05:00,46.1,35.0,30.05,WSW,249,11.5,11.5,65,0.00,,,0.04,WeatherDisplay:10.37,2013-02-12 03:05:00,
2013-02-11 22:06:00,46.1,35.0,30.05,WSW,249,5.8,5.8,65,0.00,,,0.04,WeatherDisplay:10.37,2013-02-12 03:06:00,
2013-02-11 22:07:00,46.0,34.9,30.05,West,272,3.5,3.5,65,0.00,,,0.04,WeatherDisplay:10.37,2013-02-12 03:07:00,
2013-02-11 22:10:00,45.9,34.8,30.05,WSW,238,6.9,6.9,65,0.00,,,0.04,WeatherDisplay:10.37,2013-02-12 03:10:00,
2013-02-11 22:11:00,45.9,34.8,30.05,WSW,254,10.4,10.4,65,0.00,,,0.04,WeatherDisplay:10.37,2013-02-12 03:11:00,
2013-02-11 22:12:00,45.9,34.8,30.05,WSW,239,11.5,11.5,65,0.00,,,0.04,WeatherDisplay:10.37,2013-02-12 03:12:00,
2013-02-11 22:15:00,45.9,34.8,30.05,West,269,3.5,4.4,65,0.00,,,0.04,WeatherDisplay:10.37,2013-02-12 03:15:00,
2013-02-11 22:16:00,45.8,34.7,30.05,West,262,6.9,6.9,65,0.00,,,0.04,WeatherDisplay:10.37,2013-02-12 03:16:00,
2013-02-11 22:17:00,45.8,34.7,30.05,NNW,338,8.1,8.1,65,0.00,,,0.04,WeatherDisplay:10.37,2013-02-12 03:17:00,
2013-02-11 22:21:00,45.7,34.2,30.05,WSW,256,6.9,6.9,64,0.00,,,0.04,WeatherDisplay:10.37,2013-02-12 03:21:00,
2013-02-11 22:22:00,45.7,34.6,30.05,WSW,238,5.0,5.0,65,0.00,,,0.04,WeatherDisplay:10.37,2013-02-12 03:22:00,
2013-02-11 22:26:00,45.6,34.1,30.05,WSW,257,8.1,8.1,64,0.00,,,0.04,WeatherDisplay:10.37,2013-02-12 03:26:00,
2013-02-11 22:28:00,45.6,34.5,30.05,WSW,251,4.6,4.6,65,0.00,,,0.04,WeatherDisplay:10.37,2013-02-12 03:28:00,
2013-02-11 22:31:00,45.4,34.3,30.05,West,262,6.9,6.9,65,0.00,,,0.04,WeatherDisplay:10.37,2013-02-12 03:31:00,
2013-02-11 22:33:00,45.3,34.2,30.05,SW,231,3.5,3.5,65,0.00,,,0.04,WeatherDisplay:10.37,2013-02-12 03:33:00,
2013-02-11 22:36:00,45.3,34.2,30.06,WSW,253,3.5,3.5,65,0.00,,,0.04,WeatherDisplay:10.37,2013-02-12 03:36:00,
2013-02-11 22:37:00,45.3,34.2,30.06,WSW,250,3.5,3.5,65,0.00,,,0.04,WeatherDisplay:10.37,2013-02-12 03:37:00,
2013-02-11 22:38:00,45.2,34.1,30.06,WSW,257,3.5,3.5,65,0.00,,,0.04,WeatherDisplay:10.37,2013-02-12 03:38:00,
2013-02-11 22:41:00,45.0,34.3,30.06,West,274,6.9,6.9,66,0.00,,,0.04,WeatherDisplay:10.37,2013-02-12 03:41:00,
2013-02-11 22:42:00,44.9,34.2,30.06,West,275,7.0,7.0,66,0.00,,,0.04,WeatherDisplay:10.37,2013-02-12 03:42:00,
2013-02-11 22:43:00,44.9,33.8,30.06,West,262,11.5,11.5,65,0.00,,,0.04,WeatherDisplay:10.37,2013-02-12 03:43:00,
2013-02-11 22:47:00,44.8,33.7,30.06,WSW,258,8.1,8.1,65,0.00,,,0.04,WeatherDisplay:10.37,2013-02-12 03:47:00,
2013-02-11 22:48:00,44.8,34.1,30.07,WSW,253,4.6,4.6,66,0.00,,,0.04,WeatherDisplay:10.37,2013-02-12 03:48:00,
2013-02-11 22:52:00,44.6,33.9,30.06,WSW,254,4.6,4.6,66,0.00,,,0.04,WeatherDisplay:10.37,2013-02-12 03:52:00,
2013-02-11 22:53:00,44.5,33.8,30.06,West,261,8.1,8.1,66,0.00,,,0.04,WeatherDisplay:10.37,2013-02-12 03:53:00,
2013-02-11 22:57:00,44.4,33.7,30.06,WSW,252,4.6,4.6,66,0.00,,,0.04,WeatherDisplay:10.37,2013-02-12 03:57:00,
2013-02-11 22:58:00,44.4,33.7,30.06,WNW,282,6.9,6.9,66,0.00,,,0.04,WeatherDisplay:10.37,2013-02-12 03:58:00,
2013-02-11 23:02:00,44.1,33.8,30.07,WSW,254,3.5,3.5,67,0.00,,,0.04,WeatherDisplay:10.37,2013-02-12 04:02:00,
2013-02-11 23:03:00,44.1,33.8,30.07,NW,304,3.5,3.5,67,0.00,,,0.04,WeatherDisplay:10.37,2013-02-12 04:03:00,
2013-02-11 23:08:00,43.5,34.0,30.07,NW,313,3.5,3.5,69,0.00,,,0.04,WeatherDisplay:10.37,2013-02-12 04:08:00,
2013-02-11 23:09:00,43.4,33.9,30.07,NW,305,3.5,3.5,69,0.00,,,0.04,WeatherDisplay:10.37,2013-02-12 04:09:00,
2013-02-11 23:13:00,42.9,33.8,30.07,WNW,290,3.5,3.5,70,0.00,,,0.04,WeatherDisplay:10.37,2013-02-12 04:13:00,
2013-02-11 23:14:00,42.8,33.7,30.07,West,265,3.5,3.5,70,0.00,,,0.04,WeatherDisplay:10.37,2013-02-12 04:14:00,
2013-02-11 23:18:00,42.3,33.6,30.06,WNW,293,2.3,2.3,71,0.00,,,0.04,WeatherDisplay:10.37,2013-02-12 04:18:00,
2013-02-11 23:19:00,42.3,33.6,30.06,WNW,292,2.3,2.3,71,0.00,,,0.04,WeatherDisplay:10.37,2013-02-12 04:19:00,
2013-02-11 23:23:00,41.7,33.7,30.06,West,269,1.1,1.1,73,0.00,,,0.04,WeatherDisplay:10.37,2013-02-12 04:23:00,
2013-02-11 23:24:00,41.7,33.7,30.07,West,268,1.1,1.1,73,0.00,,,0.04,WeatherDisplay:10.37,2013-02-12 04:24:00,
2013-02-11 23:28:00,41.2,33.5,30.07,West,262,3.5,3.5,74,0.00,,,0.04,WeatherDisplay:10.37,2013-02-12 04:28:00,
2013-02-11 23:29:00,41.2,33.5,30.07,West,260,3.5,3.5,74,0.00,,,0.04,WeatherDisplay:10.37,2013-02-12 04:29:00,
2013-02-11 23:30:00,41.2,33.5,30.07,WSW,245,3.5,3.5,74,0.00,,,0.04,WeatherDisplay:10.37,2013-02-12 04:30:00,
2013-02-11 23:33:00,41.0,33.3,30.07,West,266,2.3,2.3,74,0.00,,,0.04,WeatherDisplay:10.37,2013-02-12 04:33:00,
2013-02-11 23:34:00,41.0,33.7,30.07,West,265,1.1,1.1,75,0.00,,,0.04,WeatherDisplay:10.37,2013-02-12 04:34:00,
2013-02-11 23:35:00,41.0,33.7,30.07,West,265,1.1,0.0,75,0.00,,,0.04,WeatherDisplay:10.37,2013-02-12 04:35:00,
2013-02-11 23:39:00,40.8,33.5,30.06,WNW,286,1.0,1.0,75,0.00,,,0.04,WeatherDisplay:10.37,2013-02-12 04:39:00,
2013-02-11 23:40:00,40.8,33.5,30.06,West,271,0.0,1.0,75,0.00,,,0.04,WeatherDisplay:10.37,2013-02-12 04:40:00,
2013-02-11 23:44:00,40.5,33.5,30.08,WNW,285,0.0,0.0,76,0.00,,,0.04,WeatherDisplay:10.37,2013-02-12 04:44:00,
2013-02-11 23:45:00,40.5,33.2,30.08,WNW,286,0.0,1.0,75,0.00,,,0.04,WeatherDisplay:10.37,2013-02-12 04:45:00,
2013-02-11 23:50:00,39.8,33.2,30.08,West,271,2.3,2.3,77,0.00,,,0.04,WeatherDisplay:10.37,2013-02-12 04:50:00,
2013-02-11 23:55:00,39.4,33.1,30.09,WSW,248,2.3,2.3,78,0.00,,,0.04,WeatherDisplay:10.37,2013-02-12 04:55:00,